<?xml version="1.0" encoding="UTF-8" standalone="no" ?>
<gpx xmlns="http://www.topografix.com/GPX/1/1" xmlns:xsi="http://www.w3.org/2001/XMLSchema-instance" xsi:schemaLocation="http://www.topografix.com/GPX/1/1 http://www.topografix.com/GPX/1/1/gpx.xsd" version="1.1" creator="VisuGPX - https://www.visugpx.com">
  <metadata>
    <name>SEILLON SOURCE D\'ARGENS</name>
    <desc><![CDATA[Il faut traverser une forêt de chênes vert en direction du vallon des résistants.
En fin de parcours nous faisons une halte à la source de Seillon, ou nous retrouvons nos véhicules.]]></desc>
  </metadata>
  <trk>
    <name><![CDATA[ACTIVE LOG]]></name>
    <trkseg>
      <trkpt lat="43.50251" lon="5.90764">
        <ele>263.53857421875</ele>
        <time>2012-03-04T09:07:13Z</time>
      </trkpt>
      <trkpt lat="43.50249" lon="5.90764">
        <ele>266.42248535156</ele>
        <time>2012-03-04T09:07:43Z</time>
      </trkpt>
      <trkpt lat="43.50248" lon="5.90767">
        <ele>267.86450195312</ele>
        <time>2012-03-04T09:08:00Z</time>
      </trkpt>
      <trkpt lat="43.50248" lon="5.90774">
        <ele>261.13525390625</ele>
        <time>2012-03-04T09:08:20Z</time>
      </trkpt>
      <trkpt lat="43.50247" lon="5.90776">
        <ele>260.65454101562</ele>
        <time>2012-03-04T09:08:54Z</time>
      </trkpt>
      <trkpt lat="43.50248" lon="5.90775">
        <ele>260.65454101562</ele>
        <time>2012-03-04T09:09:17Z</time>
      </trkpt>
      <trkpt lat="43.50244" lon="5.90771">
        <ele>262.09655761719</ele>
        <time>2012-03-04T09:09:32Z</time>
      </trkpt>
      <trkpt lat="43.50239" lon="5.90766">
        <ele>261.13525390625</ele>
        <time>2012-03-04T09:09:43Z</time>
      </trkpt>
      <trkpt lat="43.50237" lon="5.90763">
        <ele>261.13525390625</ele>
        <time>2012-03-04T09:09:45Z</time>
      </trkpt>
      <trkpt lat="43.50221" lon="5.90746">
        <ele>263.05786132812</ele>
        <time>2012-03-04T09:10:07Z</time>
      </trkpt>
      <trkpt lat="43.50213" lon="5.90737">
        <ele>262.5771484375</ele>
        <time>2012-03-04T09:10:24Z</time>
      </trkpt>
      <trkpt lat="43.50213" lon="5.90738">
        <ele>263.53857421875</ele>
        <time>2012-03-04T09:10:55Z</time>
      </trkpt>
      <trkpt lat="43.50216" lon="5.90732">
        <ele>265.46130371094</ele>
        <time>2012-03-04T09:13:07Z</time>
      </trkpt>
      <trkpt lat="43.50215" lon="5.9072">
        <ele>266.90319824219</ele>
        <time>2012-03-04T09:13:17Z</time>
      </trkpt>
      <trkpt lat="43.50211" lon="5.90688">
        <ele>271.22912597656</ele>
        <time>2012-03-04T09:13:44Z</time>
      </trkpt>
      <trkpt lat="43.50214" lon="5.90662">
        <ele>274.11303710938</ele>
        <time>2012-03-04T09:14:06Z</time>
      </trkpt>
      <trkpt lat="43.50226" lon="5.90639">
        <ele>277.95825195312</ele>
        <time>2012-03-04T09:14:31Z</time>
      </trkpt>
      <trkpt lat="43.50249" lon="5.9063">
        <ele>282.28430175781</ele>
        <time>2012-03-04T09:15:02Z</time>
      </trkpt>
      <trkpt lat="43.50272" lon="5.90618">
        <ele>286.12951660156</ele>
        <time>2012-03-04T09:15:32Z</time>
      </trkpt>
      <trkpt lat="43.50267" lon="5.90597">
        <ele>285.16821289062</ele>
        <time>2012-03-04T09:15:51Z</time>
      </trkpt>
      <trkpt lat="43.50263" lon="5.90565">
        <ele>283.72619628906</ele>
        <time>2012-03-04T09:16:17Z</time>
      </trkpt>
      <trkpt lat="43.50263" lon="5.90537">
        <ele>284.68762207031</ele>
        <time>2012-03-04T09:16:38Z</time>
      </trkpt>
      <trkpt lat="43.50263" lon="5.90534">
        <ele>284.68762207031</ele>
        <time>2012-03-04T09:16:40Z</time>
      </trkpt>
      <trkpt lat="43.50263" lon="5.90525">
        <ele>285.16821289062</ele>
        <time>2012-03-04T09:16:52Z</time>
      </trkpt>
      <trkpt lat="43.50261" lon="5.90516">
        <ele>285.64880371094</ele>
        <time>2012-03-04T09:17:00Z</time>
      </trkpt>
      <trkpt lat="43.50254" lon="5.90491">
        <ele>284.20690917969</ele>
        <time>2012-03-04T09:17:20Z</time>
      </trkpt>
      <trkpt lat="43.50251" lon="5.90477">
        <ele>283.24560546875</ele>
        <time>2012-03-04T09:17:31Z</time>
      </trkpt>
      <trkpt lat="43.50248" lon="5.90467">
        <ele>283.72619628906</ele>
        <time>2012-03-04T09:17:37Z</time>
      </trkpt>
      <trkpt lat="43.50245" lon="5.90441">
        <ele>282.28430175781</ele>
        <time>2012-03-04T09:17:54Z</time>
      </trkpt>
      <trkpt lat="43.50244" lon="5.90437">
        <ele>281.80358886719</ele>
        <time>2012-03-04T09:17:57Z</time>
      </trkpt>
      <trkpt lat="43.50256" lon="5.90414">
        <ele>282.76501464844</ele>
        <time>2012-03-04T09:18:17Z</time>
      </trkpt>
      <trkpt lat="43.50274" lon="5.90392">
        <ele>284.68762207031</ele>
        <time>2012-03-04T09:18:39Z</time>
      </trkpt>
      <trkpt lat="43.50293" lon="5.90376">
        <ele>289.97485351562</ele>
        <time>2012-03-04T09:19:01Z</time>
      </trkpt>
      <trkpt lat="43.50312" lon="5.90361">
        <ele>291.8974609375</ele>
        <time>2012-03-04T09:19:21Z</time>
      </trkpt>
      <trkpt lat="43.50332" lon="5.90343">
        <ele>293.33935546875</ele>
        <time>2012-03-04T09:19:44Z</time>
      </trkpt>
      <trkpt lat="43.50355" lon="5.90328">
        <ele>295.26196289062</ele>
        <time>2012-03-04T09:20:06Z</time>
      </trkpt>
      <trkpt lat="43.50373" lon="5.90315">
        <ele>294.78137207031</ele>
        <time>2012-03-04T09:20:25Z</time>
      </trkpt>
      <trkpt lat="43.50385" lon="5.90298">
        <ele>295.26196289062</ele>
        <time>2012-03-04T09:20:42Z</time>
      </trkpt>
      <trkpt lat="43.50395" lon="5.90287">
        <ele>293.33935546875</ele>
        <time>2012-03-04T09:20:54Z</time>
      </trkpt>
      <trkpt lat="43.50405" lon="5.90284">
        <ele>294.30078125</ele>
        <time>2012-03-04T09:21:03Z</time>
      </trkpt>
      <trkpt lat="43.50428" lon="5.90279">
        <ele>296.7041015625</ele>
        <time>2012-03-04T09:21:24Z</time>
      </trkpt>
      <trkpt lat="43.50439" lon="5.90271">
        <ele>296.7041015625</ele>
        <time>2012-03-04T09:21:35Z</time>
      </trkpt>
      <trkpt lat="43.50451" lon="5.90258">
        <ele>301.02990722656</ele>
        <time>2012-03-04T09:21:49Z</time>
      </trkpt>
      <trkpt lat="43.50458" lon="5.9025">
        <ele>301.02990722656</ele>
        <time>2012-03-04T09:21:56Z</time>
      </trkpt>
      <trkpt lat="43.50463" lon="5.90246">
        <ele>301.02990722656</ele>
        <time>2012-03-04T09:22:01Z</time>
      </trkpt>
      <trkpt lat="43.50483" lon="5.90234">
        <ele>301.99133300781</ele>
        <time>2012-03-04T09:22:22Z</time>
      </trkpt>
      <trkpt lat="43.50498" lon="5.90214">
        <ele>297.66540527344</ele>
        <time>2012-03-04T09:22:41Z</time>
      </trkpt>
      <trkpt lat="43.50509" lon="5.90194">
        <ele>297.18469238281</ele>
        <time>2012-03-04T09:22:58Z</time>
      </trkpt>
      <trkpt lat="43.50525" lon="5.90182">
        <ele>297.18469238281</ele>
        <time>2012-03-04T09:23:14Z</time>
      </trkpt>
      <trkpt lat="43.50533" lon="5.90178">
        <ele>298.14611816406</ele>
        <time>2012-03-04T09:23:21Z</time>
      </trkpt>
      <trkpt lat="43.50554" lon="5.90162">
        <ele>301.02990722656</ele>
        <time>2012-03-04T09:23:42Z</time>
      </trkpt>
      <trkpt lat="43.50563" lon="5.90154">
        <ele>301.51062011719</ele>
        <time>2012-03-04T09:23:52Z</time>
      </trkpt>
      <trkpt lat="43.50565" lon="5.90153">
        <ele>301.99133300781</ele>
        <time>2012-03-04T09:23:54Z</time>
      </trkpt>
      <trkpt lat="43.50574" lon="5.90147">
        <ele>299.58801269531</ele>
        <time>2012-03-04T09:24:02Z</time>
      </trkpt>
      <trkpt lat="43.50599" lon="5.90159">
        <ele>303.91394042969</ele>
        <time>2012-03-04T09:24:27Z</time>
      </trkpt>
      <trkpt lat="43.50622" lon="5.90161">
        <ele>307.27856445312</ele>
        <time>2012-03-04T09:24:49Z</time>
      </trkpt>
      <trkpt lat="43.50642" lon="5.90152">
        <ele>309.68188476562</ele>
        <time>2012-03-04T09:25:08Z</time>
      </trkpt>
      <trkpt lat="43.50665" lon="5.90152">
        <ele>311.6044921875</ele>
        <time>2012-03-04T09:25:28Z</time>
      </trkpt>
      <trkpt lat="43.50681" lon="5.90149">
        <ele>314.48840332031</ele>
        <time>2012-03-04T09:25:43Z</time>
      </trkpt>
      <trkpt lat="43.50699" lon="5.90136">
        <ele>318.33361816406</ele>
        <time>2012-03-04T09:26:01Z</time>
      </trkpt>
      <trkpt lat="43.50712" lon="5.90121">
        <ele>321.2177734375</ele>
        <time>2012-03-04T09:26:16Z</time>
      </trkpt>
      <trkpt lat="43.50728" lon="5.9011">
        <ele>326.02416992188</ele>
        <time>2012-03-04T09:26:33Z</time>
      </trkpt>
      <trkpt lat="43.50745" lon="5.90109">
        <ele>319.77563476562</ele>
        <time>2012-03-04T09:26:48Z</time>
      </trkpt>
      <trkpt lat="43.50763" lon="5.90099">
        <ele>324.1015625</ele>
        <time>2012-03-04T09:27:07Z</time>
      </trkpt>
      <trkpt lat="43.50779" lon="5.90076">
        <ele>332.75354003906</ele>
        <time>2012-03-04T09:27:28Z</time>
      </trkpt>
      <trkpt lat="43.50794" lon="5.90058">
        <ele>332.75354003906</ele>
        <time>2012-03-04T09:27:47Z</time>
      </trkpt>
      <trkpt lat="43.50807" lon="5.90043">
        <ele>331.3115234375</ele>
        <time>2012-03-04T09:28:03Z</time>
      </trkpt>
      <trkpt lat="43.50824" lon="5.90029">
        <ele>329.38891601562</ele>
        <time>2012-03-04T09:28:19Z</time>
      </trkpt>
      <trkpt lat="43.50841" lon="5.90016">
        <ele>332.27282714844</ele>
        <time>2012-03-04T09:28:36Z</time>
      </trkpt>
      <trkpt lat="43.5086" lon="5.9">
        <ele>333.71472167969</ele>
        <time>2012-03-04T09:28:57Z</time>
      </trkpt>
      <trkpt lat="43.5086" lon="5.89997">
        <ele>332.75354003906</ele>
        <time>2012-03-04T09:29:10Z</time>
      </trkpt>
      <trkpt lat="43.5086" lon="5.89999">
        <ele>335.15673828125</ele>
        <time>2012-03-04T09:29:35Z</time>
      </trkpt>
      <trkpt lat="43.50859" lon="5.89997">
        <ele>334.67614746094</ele>
        <time>2012-03-04T09:29:53Z</time>
      </trkpt>
      <trkpt lat="43.5086" lon="5.89997">
        <ele>334.67614746094</ele>
        <time>2012-03-04T09:31:09Z</time>
      </trkpt>
      <trkpt lat="43.50859" lon="5.89996">
        <ele>334.19543457031</ele>
        <time>2012-03-04T09:31:24Z</time>
      </trkpt>
      <trkpt lat="43.50873" lon="5.89989">
        <ele>332.27282714844</ele>
        <time>2012-03-04T09:33:28Z</time>
      </trkpt>
      <trkpt lat="43.50876" lon="5.89989">
        <ele>331.79211425781</ele>
        <time>2012-03-04T09:33:30Z</time>
      </trkpt>
      <trkpt lat="43.50897" lon="5.8999">
        <ele>333.71472167969</ele>
        <time>2012-03-04T09:33:49Z</time>
      </trkpt>
      <trkpt lat="43.50919" lon="5.89994">
        <ele>335.63732910156</ele>
        <time>2012-03-04T09:34:09Z</time>
      </trkpt>
      <trkpt lat="43.50945" lon="5.89996">
        <ele>335.15673828125</ele>
        <time>2012-03-04T09:34:34Z</time>
      </trkpt>
      <trkpt lat="43.50965" lon="5.90001">
        <ele>333.71472167969</ele>
        <time>2012-03-04T09:34:53Z</time>
      </trkpt>
      <trkpt lat="43.50985" lon="5.9">
        <ele>335.63732910156</ele>
        <time>2012-03-04T09:35:12Z</time>
      </trkpt>
      <trkpt lat="43.51011" lon="5.89997">
        <ele>339.96337890625</ele>
        <time>2012-03-04T09:35:38Z</time>
      </trkpt>
      <trkpt lat="43.51035" lon="5.89996">
        <ele>343.32788085938</ele>
        <time>2012-03-04T09:36:01Z</time>
      </trkpt>
      <trkpt lat="43.51058" lon="5.89993">
        <ele>348.615234375</ele>
        <time>2012-03-04T09:36:22Z</time>
      </trkpt>
      <trkpt lat="43.51078" lon="5.89996">
        <ele>350.05725097656</ele>
        <time>2012-03-04T09:36:41Z</time>
      </trkpt>
      <trkpt lat="43.51101" lon="5.90002">
        <ele>353.421875</ele>
        <time>2012-03-04T09:37:04Z</time>
      </trkpt>
      <trkpt lat="43.51119" lon="5.89996">
        <ele>357.26708984375</ele>
        <time>2012-03-04T09:37:22Z</time>
      </trkpt>
      <trkpt lat="43.5114" lon="5.89995">
        <ele>361.59313964844</ele>
        <time>2012-03-04T09:37:42Z</time>
      </trkpt>
      <trkpt lat="43.51153" lon="5.89994">
        <ele>364.47692871094</ele>
        <time>2012-03-04T09:37:55Z</time>
      </trkpt>
      <trkpt lat="43.51163" lon="5.89991">
        <ele>363.99633789062</ele>
        <time>2012-03-04T09:38:04Z</time>
      </trkpt>
      <trkpt lat="43.51172" lon="5.89986">
        <ele>363.03503417969</ele>
        <time>2012-03-04T09:38:13Z</time>
      </trkpt>
      <trkpt lat="43.51176" lon="5.89984">
        <ele>364.47692871094</ele>
        <time>2012-03-04T09:38:17Z</time>
      </trkpt>
      <trkpt lat="43.51183" lon="5.89978">
        <ele>363.51574707031</ele>
        <time>2012-03-04T09:38:25Z</time>
      </trkpt>
      <trkpt lat="43.51188" lon="5.89974">
        <ele>363.51574707031</ele>
        <time>2012-03-04T09:38:30Z</time>
      </trkpt>
      <trkpt lat="43.51193" lon="5.89967">
        <ele>361.59313964844</ele>
        <time>2012-03-04T09:38:37Z</time>
      </trkpt>
      <trkpt lat="43.51201" lon="5.8996">
        <ele>361.11242675781</ele>
        <time>2012-03-04T09:38:46Z</time>
      </trkpt>
      <trkpt lat="43.51205" lon="5.89956">
        <ele>361.11242675781</ele>
        <time>2012-03-04T09:38:52Z</time>
      </trkpt>
      <trkpt lat="43.51208" lon="5.89955">
        <ele>361.11242675781</ele>
        <time>2012-03-04T09:38:55Z</time>
      </trkpt>
      <trkpt lat="43.51214" lon="5.89947">
        <ele>363.03503417969</ele>
        <time>2012-03-04T09:39:03Z</time>
      </trkpt>
      <trkpt lat="43.51218" lon="5.89944">
        <ele>363.51574707031</ele>
        <time>2012-03-04T09:39:08Z</time>
      </trkpt>
      <trkpt lat="43.51229" lon="5.89929">
        <ele>363.99633789062</ele>
        <time>2012-03-04T09:39:23Z</time>
      </trkpt>
      <trkpt lat="43.51236" lon="5.89919">
        <ele>363.99633789062</ele>
        <time>2012-03-04T09:39:32Z</time>
      </trkpt>
      <trkpt lat="43.51246" lon="5.89909">
        <ele>365.9189453125</ele>
        <time>2012-03-04T09:39:44Z</time>
      </trkpt>
      <trkpt lat="43.51248" lon="5.89909">
        <ele>364.95764160156</ele>
        <time>2012-03-04T09:39:45Z</time>
      </trkpt>
      <trkpt lat="43.51257" lon="5.89893">
        <ele>366.39953613281</ele>
        <time>2012-03-04T09:40:01Z</time>
      </trkpt>
      <trkpt lat="43.5126" lon="5.8989">
        <ele>365.9189453125</ele>
        <time>2012-03-04T09:40:04Z</time>
      </trkpt>
      <trkpt lat="43.51267" lon="5.89878">
        <ele>364.95764160156</ele>
        <time>2012-03-04T09:40:14Z</time>
      </trkpt>
      <trkpt lat="43.51269" lon="5.89875">
        <ele>365.43835449219</ele>
        <time>2012-03-04T09:40:17Z</time>
      </trkpt>
      <trkpt lat="43.51286" lon="5.89864">
        <ele>364.47692871094</ele>
        <time>2012-03-04T09:40:33Z</time>
      </trkpt>
      <trkpt lat="43.5131" lon="5.89856">
        <ele>366.39953613281</ele>
        <time>2012-03-04T09:40:54Z</time>
      </trkpt>
      <trkpt lat="43.51332" lon="5.89833">
        <ele>364.95764160156</ele>
        <time>2012-03-04T09:41:17Z</time>
      </trkpt>
      <trkpt lat="43.51353" lon="5.89804">
        <ele>365.9189453125</ele>
        <time>2012-03-04T09:41:43Z</time>
      </trkpt>
      <trkpt lat="43.51359" lon="5.89795">
        <ele>367.36096191406</ele>
        <time>2012-03-04T09:41:50Z</time>
      </trkpt>
      <trkpt lat="43.51376" lon="5.89774">
        <ele>369.76428222656</ele>
        <time>2012-03-04T09:42:11Z</time>
      </trkpt>
      <trkpt lat="43.51386" lon="5.89761">
        <ele>371.20629882812</ele>
        <time>2012-03-04T09:42:24Z</time>
      </trkpt>
      <trkpt lat="43.51393" lon="5.89752">
        <ele>370.24487304688</ele>
        <time>2012-03-04T09:42:32Z</time>
      </trkpt>
      <trkpt lat="43.51406" lon="5.89738">
        <ele>370.7255859375</ele>
        <time>2012-03-04T09:42:48Z</time>
      </trkpt>
      <trkpt lat="43.5141" lon="5.89733">
        <ele>369.76428222656</ele>
        <time>2012-03-04T09:42:52Z</time>
      </trkpt>
      <trkpt lat="43.51419" lon="5.89725">
        <ele>368.80297851562</ele>
        <time>2012-03-04T09:43:01Z</time>
      </trkpt>
      <trkpt lat="43.51427" lon="5.89717">
        <ele>373.12890625</ele>
        <time>2012-03-04T09:43:11Z</time>
      </trkpt>
      <trkpt lat="43.51431" lon="5.89713">
        <ele>375.53210449219</ele>
        <time>2012-03-04T09:43:16Z</time>
      </trkpt>
      <trkpt lat="43.5145" lon="5.89699">
        <ele>377.93542480469</ele>
        <time>2012-03-04T09:43:36Z</time>
      </trkpt>
      <trkpt lat="43.51461" lon="5.89692">
        <ele>380.33874511719</ele>
        <time>2012-03-04T09:43:49Z</time>
      </trkpt>
      <trkpt lat="43.51467" lon="5.89688">
        <ele>382.26135253906</ele>
        <time>2012-03-04T09:43:55Z</time>
      </trkpt>
      <trkpt lat="43.51483" lon="5.89679">
        <ele>383.70324707031</ele>
        <time>2012-03-04T09:44:09Z</time>
      </trkpt>
      <trkpt lat="43.51486" lon="5.89677">
        <ele>383.22265625</ele>
        <time>2012-03-04T09:44:12Z</time>
      </trkpt>
      <trkpt lat="43.51488" lon="5.89676">
        <ele>383.70324707031</ele>
        <time>2012-03-04T09:44:14Z</time>
      </trkpt>
      <trkpt lat="43.51494" lon="5.89671">
        <ele>383.70324707031</ele>
        <time>2012-03-04T09:44:20Z</time>
      </trkpt>
      <trkpt lat="43.51502" lon="5.89667">
        <ele>387.54858398438</ele>
        <time>2012-03-04T09:44:28Z</time>
      </trkpt>
      <trkpt lat="43.51511" lon="5.89665">
        <ele>387.54858398438</ele>
        <time>2012-03-04T09:44:36Z</time>
      </trkpt>
      <trkpt lat="43.51526" lon="5.89663">
        <ele>388.99060058594</ele>
        <time>2012-03-04T09:44:50Z</time>
      </trkpt>
      <trkpt lat="43.51552" lon="5.89662">
        <ele>389.47119140625</ele>
        <time>2012-03-04T09:45:12Z</time>
      </trkpt>
      <trkpt lat="43.51559" lon="5.8966">
        <ele>389.95190429688</ele>
        <time>2012-03-04T09:45:19Z</time>
      </trkpt>
      <trkpt lat="43.51574" lon="5.89646">
        <ele>389.95190429688</ele>
        <time>2012-03-04T09:45:38Z</time>
      </trkpt>
      <trkpt lat="43.51579" lon="5.89643">
        <ele>390.91320800781</ele>
        <time>2012-03-04T09:45:43Z</time>
      </trkpt>
      <trkpt lat="43.51584" lon="5.89642">
        <ele>391.87451171875</ele>
        <time>2012-03-04T09:45:48Z</time>
      </trkpt>
      <trkpt lat="43.51612" lon="5.89651">
        <ele>393.79724121094</ele>
        <time>2012-03-04T09:46:13Z</time>
      </trkpt>
      <trkpt lat="43.51634" lon="5.89656">
        <ele>395.23913574219</ele>
        <time>2012-03-04T09:46:32Z</time>
      </trkpt>
      <trkpt lat="43.51647" lon="5.89658">
        <ele>396.20056152344</ele>
        <time>2012-03-04T09:46:47Z</time>
      </trkpt>
      <trkpt lat="43.51662" lon="5.89663">
        <ele>394.27795410156</ele>
        <time>2012-03-04T09:47:00Z</time>
      </trkpt>
      <trkpt lat="43.51685" lon="5.89668">
        <ele>391.87451171875</ele>
        <time>2012-03-04T09:47:19Z</time>
      </trkpt>
      <trkpt lat="43.51709" lon="5.89671">
        <ele>390.91320800781</ele>
        <time>2012-03-04T09:47:40Z</time>
      </trkpt>
      <trkpt lat="43.5171" lon="5.89671">
        <ele>390.4326171875</ele>
        <time>2012-03-04T09:47:41Z</time>
      </trkpt>
      <trkpt lat="43.51715" lon="5.89672">
        <ele>391.39379882812</ele>
        <time>2012-03-04T09:47:46Z</time>
      </trkpt>
      <trkpt lat="43.51721" lon="5.89673">
        <ele>388.51000976562</ele>
        <time>2012-03-04T09:47:51Z</time>
      </trkpt>
      <trkpt lat="43.51745" lon="5.89685">
        <ele>386.10668945312</ele>
        <time>2012-03-04T09:48:13Z</time>
      </trkpt>
      <trkpt lat="43.51771" lon="5.89694">
        <ele>384.66479492188</ele>
        <time>2012-03-04T09:48:36Z</time>
      </trkpt>
      <trkpt lat="43.51791" lon="5.89696">
        <ele>384.66479492188</ele>
        <time>2012-03-04T09:48:54Z</time>
      </trkpt>
      <trkpt lat="43.51823" lon="5.89699">
        <ele>381.78063964844</ele>
        <time>2012-03-04T09:49:22Z</time>
      </trkpt>
      <trkpt lat="43.51858" lon="5.89698">
        <ele>381.78063964844</ele>
        <time>2012-03-04T09:49:54Z</time>
      </trkpt>
      <trkpt lat="43.51891" lon="5.89693">
        <ele>381.78063964844</ele>
        <time>2012-03-04T09:50:23Z</time>
      </trkpt>
      <trkpt lat="43.51924" lon="5.89687">
        <ele>383.22265625</ele>
        <time>2012-03-04T09:50:52Z</time>
      </trkpt>
      <trkpt lat="43.51953" lon="5.89675">
        <ele>382.74206542969</ele>
        <time>2012-03-04T09:51:19Z</time>
      </trkpt>
      <trkpt lat="43.5198" lon="5.89662">
        <ele>382.26135253906</ele>
        <time>2012-03-04T09:51:44Z</time>
      </trkpt>
      <trkpt lat="43.5201" lon="5.89651">
        <ele>382.26135253906</ele>
        <time>2012-03-04T09:52:10Z</time>
      </trkpt>
      <trkpt lat="43.52031" lon="5.89645">
        <ele>382.26135253906</ele>
        <time>2012-03-04T09:52:29Z</time>
      </trkpt>
      <trkpt lat="43.5206" lon="5.89634">
        <ele>380.81945800781</ele>
        <time>2012-03-04T09:52:54Z</time>
      </trkpt>
      <trkpt lat="43.5209" lon="5.8962">
        <ele>380.33874511719</ele>
        <time>2012-03-04T09:53:21Z</time>
      </trkpt>
      <trkpt lat="43.52115" lon="5.89609">
        <ele>381.30004882812</ele>
        <time>2012-03-04T09:53:44Z</time>
      </trkpt>
      <trkpt lat="43.52138" lon="5.89601">
        <ele>383.70324707031</ele>
        <time>2012-03-04T09:54:04Z</time>
      </trkpt>
      <trkpt lat="43.52166" lon="5.89586">
        <ele>384.66479492188</ele>
        <time>2012-03-04T09:54:31Z</time>
      </trkpt>
      <trkpt lat="43.52195" lon="5.89574">
        <ele>384.66479492188</ele>
        <time>2012-03-04T09:54:56Z</time>
      </trkpt>
      <trkpt lat="43.52222" lon="5.89562">
        <ele>383.22265625</ele>
        <time>2012-03-04T09:55:22Z</time>
      </trkpt>
      <trkpt lat="43.5224" lon="5.89555">
        <ele>383.22265625</ele>
        <time>2012-03-04T09:55:36Z</time>
      </trkpt>
      <trkpt lat="43.52246" lon="5.89553">
        <ele>381.78063964844</ele>
        <time>2012-03-04T09:55:40Z</time>
      </trkpt>
      <trkpt lat="43.52253" lon="5.8955">
        <ele>381.30004882812</ele>
        <time>2012-03-04T09:55:46Z</time>
      </trkpt>
      <trkpt lat="43.52262" lon="5.89549">
        <ele>384.66479492188</ele>
        <time>2012-03-04T09:55:55Z</time>
      </trkpt>
      <trkpt lat="43.52288" lon="5.89547">
        <ele>384.66479492188</ele>
        <time>2012-03-04T09:56:16Z</time>
      </trkpt>
      <trkpt lat="43.52302" lon="5.89548">
        <ele>387.54858398438</ele>
        <time>2012-03-04T09:56:29Z</time>
      </trkpt>
      <trkpt lat="43.52322" lon="5.89548">
        <ele>387.06799316406</ele>
        <time>2012-03-04T09:56:45Z</time>
      </trkpt>
      <trkpt lat="43.52345" lon="5.89547">
        <ele>385.14538574219</ele>
        <time>2012-03-04T09:57:03Z</time>
      </trkpt>
      <trkpt lat="43.52368" lon="5.89549">
        <ele>383.22265625</ele>
        <time>2012-03-04T09:57:22Z</time>
      </trkpt>
      <trkpt lat="43.52383" lon="5.89547">
        <ele>383.22265625</ele>
        <time>2012-03-04T09:57:37Z</time>
      </trkpt>
      <trkpt lat="43.52384" lon="5.89548">
        <ele>383.70324707031</ele>
        <time>2012-03-04T09:57:38Z</time>
      </trkpt>
      <trkpt lat="43.5239" lon="5.89549">
        <ele>385.14538574219</ele>
        <time>2012-03-04T09:57:43Z</time>
      </trkpt>
      <trkpt lat="43.52407" lon="5.89552">
        <ele>386.58740234375</ele>
        <time>2012-03-04T09:57:58Z</time>
      </trkpt>
      <trkpt lat="43.52432" lon="5.89553">
        <ele>386.10668945312</ele>
        <time>2012-03-04T09:58:18Z</time>
      </trkpt>
      <trkpt lat="43.52451" lon="5.89553">
        <ele>386.10668945312</ele>
        <time>2012-03-04T09:58:34Z</time>
      </trkpt>
      <trkpt lat="43.52478" lon="5.89556">
        <ele>386.10668945312</ele>
        <time>2012-03-04T09:58:56Z</time>
      </trkpt>
      <trkpt lat="43.52493" lon="5.89554">
        <ele>386.10668945312</ele>
        <time>2012-03-04T09:59:08Z</time>
      </trkpt>
      <trkpt lat="43.52515" lon="5.89554">
        <ele>383.70324707031</ele>
        <time>2012-03-04T09:59:26Z</time>
      </trkpt>
      <trkpt lat="43.52536" lon="5.89556">
        <ele>380.81945800781</ele>
        <time>2012-03-04T09:59:42Z</time>
      </trkpt>
      <trkpt lat="43.52552" lon="5.89557">
        <ele>381.78063964844</ele>
        <time>2012-03-04T09:59:56Z</time>
      </trkpt>
      <trkpt lat="43.52579" lon="5.89555">
        <ele>382.26135253906</ele>
        <time>2012-03-04T10:00:18Z</time>
      </trkpt>
      <trkpt lat="43.52589" lon="5.89555">
        <ele>384.18408203125</ele>
        <time>2012-03-04T10:00:26Z</time>
      </trkpt>
      <trkpt lat="43.52601" lon="5.89558">
        <ele>384.66479492188</ele>
        <time>2012-03-04T10:00:37Z</time>
      </trkpt>
      <trkpt lat="43.52612" lon="5.89559">
        <ele>389.95190429688</ele>
        <time>2012-03-04T10:00:49Z</time>
      </trkpt>
      <trkpt lat="43.52617" lon="5.89559">
        <ele>389.95190429688</ele>
        <time>2012-03-04T10:00:53Z</time>
      </trkpt>
      <trkpt lat="43.52618" lon="5.89561">
        <ele>390.91320800781</ele>
        <time>2012-03-04T10:00:55Z</time>
      </trkpt>
      <trkpt lat="43.52644" lon="5.89563">
        <ele>387.54858398438</ele>
        <time>2012-03-04T10:01:15Z</time>
      </trkpt>
      <trkpt lat="43.52663" lon="5.89563">
        <ele>386.10668945312</ele>
        <time>2012-03-04T10:01:30Z</time>
      </trkpt>
      <trkpt lat="43.52675" lon="5.89563">
        <ele>383.22265625</ele>
        <time>2012-03-04T10:01:39Z</time>
      </trkpt>
      <trkpt lat="43.52698" lon="5.89564">
        <ele>382.26135253906</ele>
        <time>2012-03-04T10:01:57Z</time>
      </trkpt>
      <trkpt lat="43.527" lon="5.89565">
        <ele>382.74206542969</ele>
        <time>2012-03-04T10:01:59Z</time>
      </trkpt>
      <trkpt lat="43.52708" lon="5.89568">
        <ele>382.74206542969</ele>
        <time>2012-03-04T10:02:06Z</time>
      </trkpt>
      <trkpt lat="43.5271" lon="5.89568">
        <ele>383.70324707031</ele>
        <time>2012-03-04T10:02:08Z</time>
      </trkpt>
      <trkpt lat="43.52729" lon="5.89568">
        <ele>379.85803222656</ele>
        <time>2012-03-04T10:02:23Z</time>
      </trkpt>
      <trkpt lat="43.52739" lon="5.89569">
        <ele>381.78063964844</ele>
        <time>2012-03-04T10:02:31Z</time>
      </trkpt>
      <trkpt lat="43.52746" lon="5.89569">
        <ele>381.30004882812</ele>
        <time>2012-03-04T10:02:37Z</time>
      </trkpt>
      <trkpt lat="43.52772" lon="5.89567">
        <ele>380.33874511719</ele>
        <time>2012-03-04T10:02:57Z</time>
      </trkpt>
      <trkpt lat="43.52799" lon="5.89561">
        <ele>379.85803222656</ele>
        <time>2012-03-04T10:03:19Z</time>
      </trkpt>
      <trkpt lat="43.52826" lon="5.89547">
        <ele>375.05151367188</ele>
        <time>2012-03-04T10:03:42Z</time>
      </trkpt>
      <trkpt lat="43.52823" lon="5.89563">
        <ele>372.16748046875</ele>
        <time>2012-03-04T10:03:56Z</time>
      </trkpt>
      <trkpt lat="43.52823" lon="5.89563">
        <ele>371.68688964844</ele>
        <time>2012-03-04T10:05:14Z</time>
      </trkpt>
      <trkpt lat="43.52824" lon="5.89563">
        <ele>371.20629882812</ele>
        <time>2012-03-04T10:06:36Z</time>
      </trkpt>
      <trkpt lat="43.5282" lon="5.89568">
        <ele>370.24487304688</ele>
        <time>2012-03-04T10:07:34Z</time>
      </trkpt>
      <trkpt lat="43.52817" lon="5.89571">
        <ele>369.76428222656</ele>
        <time>2012-03-04T10:07:40Z</time>
      </trkpt>
      <trkpt lat="43.52815" lon="5.89576">
        <ele>369.76428222656</ele>
        <time>2012-03-04T10:07:44Z</time>
      </trkpt>
      <trkpt lat="43.52804" lon="5.89586">
        <ele>369.76428222656</ele>
        <time>2012-03-04T10:07:58Z</time>
      </trkpt>
      <trkpt lat="43.52794" lon="5.89599">
        <ele>369.28369140625</ele>
        <time>2012-03-04T10:08:12Z</time>
      </trkpt>
      <trkpt lat="43.52788" lon="5.89605">
        <ele>371.68688964844</ele>
        <time>2012-03-04T10:08:20Z</time>
      </trkpt>
      <trkpt lat="43.52783" lon="5.89618">
        <ele>371.68688964844</ele>
        <time>2012-03-04T10:08:35Z</time>
      </trkpt>
      <trkpt lat="43.52776" lon="5.89636">
        <ele>371.20629882812</ele>
        <time>2012-03-04T10:08:47Z</time>
      </trkpt>
      <trkpt lat="43.52772" lon="5.89653">
        <ele>369.76428222656</ele>
        <time>2012-03-04T10:09:00Z</time>
      </trkpt>
      <trkpt lat="43.52762" lon="5.89676">
        <ele>366.88024902344</ele>
        <time>2012-03-04T10:09:14Z</time>
      </trkpt>
      <trkpt lat="43.52748" lon="5.89699">
        <ele>362.55432128906</ele>
        <time>2012-03-04T10:09:32Z</time>
      </trkpt>
      <trkpt lat="43.52739" lon="5.89716">
        <ele>360.63171386719</ele>
        <time>2012-03-04T10:09:46Z</time>
      </trkpt>
      <trkpt lat="43.52731" lon="5.89722">
        <ele>358.708984375</ele>
        <time>2012-03-04T10:10:02Z</time>
      </trkpt>
      <trkpt lat="43.52735" lon="5.89723">
        <ele>356.30578613281</ele>
        <time>2012-03-04T10:10:15Z</time>
      </trkpt>
      <trkpt lat="43.52736" lon="5.89722">
        <ele>355.8251953125</ele>
        <time>2012-03-04T10:10:28Z</time>
      </trkpt>
      <trkpt lat="43.52736" lon="5.89721">
        <ele>354.86376953125</ele>
        <time>2012-03-04T10:11:15Z</time>
      </trkpt>
      <trkpt lat="43.52736" lon="5.89721">
        <ele>354.86376953125</ele>
        <time>2012-03-04T10:12:10Z</time>
      </trkpt>
      <trkpt lat="43.52735" lon="5.89721">
        <ele>355.8251953125</ele>
        <time>2012-03-04T10:13:39Z</time>
      </trkpt>
      <trkpt lat="43.52735" lon="5.89721">
        <ele>355.8251953125</ele>
        <time>2012-03-04T10:14:35Z</time>
      </trkpt>
      <trkpt lat="43.52736" lon="5.89718">
        <ele>356.30578613281</ele>
        <time>2012-03-04T10:14:54Z</time>
      </trkpt>
      <trkpt lat="43.52737" lon="5.89714">
        <ele>356.78637695312</ele>
        <time>2012-03-04T10:14:58Z</time>
      </trkpt>
      <trkpt lat="43.52749" lon="5.89695">
        <ele>358.708984375</ele>
        <time>2012-03-04T10:15:19Z</time>
      </trkpt>
      <trkpt lat="43.52755" lon="5.89685">
        <ele>360.15112304688</ele>
        <time>2012-03-04T10:15:28Z</time>
      </trkpt>
      <trkpt lat="43.52762" lon="5.89672">
        <ele>363.51574707031</ele>
        <time>2012-03-04T10:15:43Z</time>
      </trkpt>
      <trkpt lat="43.52762" lon="5.8967">
        <ele>363.51574707031</ele>
        <time>2012-03-04T10:15:44Z</time>
      </trkpt>
      <trkpt lat="43.52766" lon="5.89656">
        <ele>363.99633789062</ele>
        <time>2012-03-04T10:15:59Z</time>
      </trkpt>
      <trkpt lat="43.52777" lon="5.89629">
        <ele>364.47692871094</ele>
        <time>2012-03-04T10:16:20Z</time>
      </trkpt>
      <trkpt lat="43.52785" lon="5.89612">
        <ele>366.88024902344</ele>
        <time>2012-03-04T10:16:37Z</time>
      </trkpt>
      <trkpt lat="43.52791" lon="5.89596">
        <ele>369.76428222656</ele>
        <time>2012-03-04T10:16:49Z</time>
      </trkpt>
      <trkpt lat="43.52798" lon="5.89587">
        <ele>373.60949707031</ele>
        <time>2012-03-04T10:17:01Z</time>
      </trkpt>
      <trkpt lat="43.52806" lon="5.8958">
        <ele>373.60949707031</ele>
        <time>2012-03-04T10:17:11Z</time>
      </trkpt>
      <trkpt lat="43.52819" lon="5.89566">
        <ele>372.16748046875</ele>
        <time>2012-03-04T10:17:26Z</time>
      </trkpt>
      <trkpt lat="43.52835" lon="5.89546">
        <ele>373.60949707031</ele>
        <time>2012-03-04T10:17:46Z</time>
      </trkpt>
      <trkpt lat="43.52849" lon="5.8953">
        <ele>374.09008789062</ele>
        <time>2012-03-04T10:18:05Z</time>
      </trkpt>
      <trkpt lat="43.52866" lon="5.8952">
        <ele>375.53210449219</ele>
        <time>2012-03-04T10:18:23Z</time>
      </trkpt>
      <trkpt lat="43.52891" lon="5.8951">
        <ele>376.01281738281</ele>
        <time>2012-03-04T10:18:44Z</time>
      </trkpt>
      <trkpt lat="43.52915" lon="5.895">
        <ele>374.09008789062</ele>
        <time>2012-03-04T10:19:08Z</time>
      </trkpt>
      <trkpt lat="43.52937" lon="5.8949">
        <ele>374.57080078125</ele>
        <time>2012-03-04T10:19:28Z</time>
      </trkpt>
      <trkpt lat="43.52961" lon="5.89478">
        <ele>376.01281738281</ele>
        <time>2012-03-04T10:19:52Z</time>
      </trkpt>
      <trkpt lat="43.52988" lon="5.89464">
        <ele>376.49353027344</ele>
        <time>2012-03-04T10:20:17Z</time>
      </trkpt>
      <trkpt lat="43.53012" lon="5.89454">
        <ele>376.97424316406</ele>
        <time>2012-03-04T10:20:39Z</time>
      </trkpt>
      <trkpt lat="43.53036" lon="5.89442">
        <ele>377.93542480469</ele>
        <time>2012-03-04T10:21:01Z</time>
      </trkpt>
      <trkpt lat="43.53062" lon="5.8942">
        <ele>377.93542480469</ele>
        <time>2012-03-04T10:21:27Z</time>
      </trkpt>
      <trkpt lat="43.53083" lon="5.89403">
        <ele>376.97424316406</ele>
        <time>2012-03-04T10:21:48Z</time>
      </trkpt>
      <trkpt lat="43.53108" lon="5.89377">
        <ele>377.93542480469</ele>
        <time>2012-03-04T10:22:14Z</time>
      </trkpt>
      <trkpt lat="43.53129" lon="5.89354">
        <ele>378.89685058594</ele>
        <time>2012-03-04T10:22:37Z</time>
      </trkpt>
      <trkpt lat="43.53145" lon="5.8934">
        <ele>378.89685058594</ele>
        <time>2012-03-04T10:22:54Z</time>
      </trkpt>
      <trkpt lat="43.53165" lon="5.89324">
        <ele>380.33874511719</ele>
        <time>2012-03-04T10:23:14Z</time>
      </trkpt>
      <trkpt lat="43.53187" lon="5.89313">
        <ele>381.30004882812</ele>
        <time>2012-03-04T10:23:35Z</time>
      </trkpt>
      <trkpt lat="43.53213" lon="5.893">
        <ele>383.22265625</ele>
        <time>2012-03-04T10:23:59Z</time>
      </trkpt>
      <trkpt lat="43.53236" lon="5.89281">
        <ele>384.66479492188</ele>
        <time>2012-03-04T10:24:22Z</time>
      </trkpt>
      <trkpt lat="43.53253" lon="5.89268">
        <ele>386.10668945312</ele>
        <time>2012-03-04T10:24:41Z</time>
      </trkpt>
      <trkpt lat="43.53275" lon="5.89251">
        <ele>387.54858398438</ele>
        <time>2012-03-04T10:25:03Z</time>
      </trkpt>
      <trkpt lat="43.53294" lon="5.89233">
        <ele>389.47119140625</ele>
        <time>2012-03-04T10:25:24Z</time>
      </trkpt>
      <trkpt lat="43.53317" lon="5.89216">
        <ele>391.39379882812</ele>
        <time>2012-03-04T10:25:46Z</time>
      </trkpt>
      <trkpt lat="43.53336" lon="5.892">
        <ele>390.4326171875</ele>
        <time>2012-03-04T10:26:07Z</time>
      </trkpt>
      <trkpt lat="43.53353" lon="5.89185">
        <ele>390.91320800781</ele>
        <time>2012-03-04T10:26:24Z</time>
      </trkpt>
      <trkpt lat="43.53376" lon="5.89163">
        <ele>392.8359375</ele>
        <time>2012-03-04T10:26:48Z</time>
      </trkpt>
      <trkpt lat="43.53396" lon="5.89148">
        <ele>393.79724121094</ele>
        <time>2012-03-04T10:27:08Z</time>
      </trkpt>
      <trkpt lat="43.53416" lon="5.8913">
        <ele>394.27795410156</ele>
        <time>2012-03-04T10:27:30Z</time>
      </trkpt>
      <trkpt lat="43.53438" lon="5.89106">
        <ele>396.68115234375</ele>
        <time>2012-03-04T10:27:55Z</time>
      </trkpt>
      <trkpt lat="43.53459" lon="5.89083">
        <ele>399.56506347656</ele>
        <time>2012-03-04T10:28:19Z</time>
      </trkpt>
      <trkpt lat="43.53468" lon="5.89057">
        <ele>401.48779296875</ele>
        <time>2012-03-04T10:28:40Z</time>
      </trkpt>
      <trkpt lat="43.53468" lon="5.8905">
        <ele>401.96850585938</ele>
        <time>2012-03-04T10:28:45Z</time>
      </trkpt>
      <trkpt lat="43.53459" lon="5.8901">
        <ele>404.37170410156</ele>
        <time>2012-03-04T10:29:12Z</time>
      </trkpt>
      <trkpt lat="43.53454" lon="5.89005">
        <ele>405.81372070312</ele>
        <time>2012-03-04T10:29:18Z</time>
      </trkpt>
      <trkpt lat="43.53431" lon="5.88999">
        <ele>407.25561523438</ele>
        <time>2012-03-04T10:29:41Z</time>
      </trkpt>
      <trkpt lat="43.53407" lon="5.88988">
        <ele>407.736328125</ele>
        <time>2012-03-04T10:30:06Z</time>
      </trkpt>
      <trkpt lat="43.534" lon="5.88979">
        <ele>407.25561523438</ele>
        <time>2012-03-04T10:30:23Z</time>
      </trkpt>
      <trkpt lat="43.53399" lon="5.88978">
        <ele>407.736328125</ele>
        <time>2012-03-04T10:30:24Z</time>
      </trkpt>
      <trkpt lat="43.53382" lon="5.8896">
        <ele>407.736328125</ele>
        <time>2012-03-04T10:30:44Z</time>
      </trkpt>
      <trkpt lat="43.53379" lon="5.88955">
        <ele>408.21704101562</ele>
        <time>2012-03-04T10:30:48Z</time>
      </trkpt>
      <trkpt lat="43.53364" lon="5.88926">
        <ele>408.69763183594</ele>
        <time>2012-03-04T10:31:09Z</time>
      </trkpt>
      <trkpt lat="43.53344" lon="5.88893">
        <ele>409.65905761719</ele>
        <time>2012-03-04T10:31:36Z</time>
      </trkpt>
      <trkpt lat="43.53334" lon="5.88875">
        <ele>410.1396484375</ele>
        <time>2012-03-04T10:31:54Z</time>
      </trkpt>
      <trkpt lat="43.53313" lon="5.88841">
        <ele>412.06225585938</ele>
        <time>2012-03-04T10:32:24Z</time>
      </trkpt>
      <trkpt lat="43.53292" lon="5.88821">
        <ele>413.98486328125</ele>
        <time>2012-03-04T10:32:48Z</time>
      </trkpt>
      <trkpt lat="43.53267" lon="5.88799">
        <ele>413.98486328125</ele>
        <time>2012-03-04T10:33:15Z</time>
      </trkpt>
      <trkpt lat="43.53247" lon="5.88785">
        <ele>413.50427246094</ele>
        <time>2012-03-04T10:33:34Z</time>
      </trkpt>
      <trkpt lat="43.53242" lon="5.88758">
        <ele>412.54284667969</ele>
        <time>2012-03-04T10:33:54Z</time>
      </trkpt>
      <trkpt lat="43.53267" lon="5.88742">
        <ele>412.06225585938</ele>
        <time>2012-03-04T10:34:18Z</time>
      </trkpt>
      <trkpt lat="43.53278" lon="5.88726">
        <ele>410.62023925781</ele>
        <time>2012-03-04T10:34:33Z</time>
      </trkpt>
      <trkpt lat="43.53279" lon="5.88696">
        <ele>406.77490234375</ele>
        <time>2012-03-04T10:34:53Z</time>
      </trkpt>
      <trkpt lat="43.53296" lon="5.88667">
        <ele>409.65905761719</ele>
        <time>2012-03-04T10:35:16Z</time>
      </trkpt>
      <trkpt lat="43.53318" lon="5.88673">
        <ele>409.65905761719</ele>
        <time>2012-03-04T10:35:37Z</time>
      </trkpt>
      <trkpt lat="43.53338" lon="5.88686">
        <ele>408.69763183594</ele>
        <time>2012-03-04T10:35:58Z</time>
      </trkpt>
      <trkpt lat="43.53369" lon="5.887">
        <ele>411.58166503906</ele>
        <time>2012-03-04T10:36:27Z</time>
      </trkpt>
      <trkpt lat="43.53386" lon="5.88706">
        <ele>412.06225585938</ele>
        <time>2012-03-04T10:36:42Z</time>
      </trkpt>
      <trkpt lat="43.53409" lon="5.88722">
        <ele>413.50427246094</ele>
        <time>2012-03-04T10:37:06Z</time>
      </trkpt>
      <trkpt lat="43.53437" lon="5.88731">
        <ele>414.94616699219</ele>
        <time>2012-03-04T10:37:35Z</time>
      </trkpt>
      <trkpt lat="43.53471" lon="5.88716">
        <ele>418.31079101562</ele>
        <time>2012-03-04T10:38:08Z</time>
      </trkpt>
      <trkpt lat="43.53492" lon="5.88681">
        <ele>419.27221679688</ele>
        <time>2012-03-04T10:38:38Z</time>
      </trkpt>
      <trkpt lat="43.53513" lon="5.88644">
        <ele>421.67541503906</ele>
        <time>2012-03-04T10:39:08Z</time>
      </trkpt>
      <trkpt lat="43.53518" lon="5.88631">
        <ele>421.67541503906</ele>
        <time>2012-03-04T10:39:19Z</time>
      </trkpt>
      <trkpt lat="43.53525" lon="5.88595">
        <ele>425.04016113281</ele>
        <time>2012-03-04T10:39:45Z</time>
      </trkpt>
      <trkpt lat="43.53525" lon="5.88557">
        <ele>428.40466308594</ele>
        <time>2012-03-04T10:40:10Z</time>
      </trkpt>
      <trkpt lat="43.53526" lon="5.88535">
        <ele>429.36596679688</ele>
        <time>2012-03-04T10:40:26Z</time>
      </trkpt>
      <trkpt lat="43.53528" lon="5.885">
        <ele>432.73071289062</ele>
        <time>2012-03-04T10:40:50Z</time>
      </trkpt>
      <trkpt lat="43.5352" lon="5.88461">
        <ele>436.09521484375</ele>
        <time>2012-03-04T10:41:16Z</time>
      </trkpt>
      <trkpt lat="43.53515" lon="5.88426">
        <ele>438.01782226562</ele>
        <time>2012-03-04T10:41:42Z</time>
      </trkpt>
      <trkpt lat="43.53521" lon="5.88418">
        <ele>438.97912597656</ele>
        <time>2012-03-04T10:41:50Z</time>
      </trkpt>
      <trkpt lat="43.53529" lon="5.8842">
        <ele>438.97912597656</ele>
        <time>2012-03-04T10:41:58Z</time>
      </trkpt>
      <trkpt lat="43.53554" lon="5.88431">
        <ele>438.01782226562</ele>
        <time>2012-03-04T10:42:24Z</time>
      </trkpt>
      <trkpt lat="43.53577" lon="5.88433">
        <ele>437.537109375</ele>
        <time>2012-03-04T10:42:47Z</time>
      </trkpt>
      <trkpt lat="43.53592" lon="5.88468">
        <ele>436.57592773438</ele>
        <time>2012-03-04T10:43:13Z</time>
      </trkpt>
      <trkpt lat="43.53614" lon="5.88491">
        <ele>438.01782226562</ele>
        <time>2012-03-04T10:43:40Z</time>
      </trkpt>
      <trkpt lat="43.53639" lon="5.88475">
        <ele>439.9404296875</ele>
        <time>2012-03-04T10:44:04Z</time>
      </trkpt>
      <trkpt lat="43.53658" lon="5.88454">
        <ele>441.86315917969</ele>
        <time>2012-03-04T10:44:27Z</time>
      </trkpt>
      <trkpt lat="43.53677" lon="5.88426">
        <ele>444.26647949219</ele>
        <time>2012-03-04T10:44:53Z</time>
      </trkpt>
      <trkpt lat="43.53691" lon="5.88387">
        <ele>446.66967773438</ele>
        <time>2012-03-04T10:45:22Z</time>
      </trkpt>
      <trkpt lat="43.53707" lon="5.88348">
        <ele>449.07299804688</ele>
        <time>2012-03-04T10:45:52Z</time>
      </trkpt>
      <trkpt lat="43.53721" lon="5.88316">
        <ele>450.51501464844</ele>
        <time>2012-03-04T10:46:17Z</time>
      </trkpt>
      <trkpt lat="43.53739" lon="5.88276">
        <ele>452.91821289062</ele>
        <time>2012-03-04T10:46:49Z</time>
      </trkpt>
      <trkpt lat="43.53757" lon="5.88235">
        <ele>455.32153320312</ele>
        <time>2012-03-04T10:47:21Z</time>
      </trkpt>
      <trkpt lat="43.5376" lon="5.88227">
        <ele>455.80224609375</ele>
        <time>2012-03-04T10:47:28Z</time>
      </trkpt>
      <trkpt lat="43.53763" lon="5.88215">
        <ele>455.32153320312</ele>
        <time>2012-03-04T10:47:47Z</time>
      </trkpt>
      <trkpt lat="43.53763" lon="5.88216">
        <ele>455.80224609375</ele>
        <time>2012-03-04T10:48:38Z</time>
      </trkpt>
      <trkpt lat="43.53762" lon="5.88215">
        <ele>455.80224609375</ele>
        <time>2012-03-04T10:49:06Z</time>
      </trkpt>
      <trkpt lat="43.53762" lon="5.88215">
        <ele>455.80224609375</ele>
        <time>2012-03-04T10:49:21Z</time>
      </trkpt>
      <trkpt lat="43.53762" lon="5.88213">
        <ele>455.32153320312</ele>
        <time>2012-03-04T10:49:46Z</time>
      </trkpt>
      <trkpt lat="43.53761" lon="5.88212">
        <ele>454.8408203125</ele>
        <time>2012-03-04T10:50:07Z</time>
      </trkpt>
      <trkpt lat="43.53761" lon="5.88211">
        <ele>454.36022949219</ele>
        <time>2012-03-04T10:50:29Z</time>
      </trkpt>
      <trkpt lat="43.53762" lon="5.88212">
        <ele>454.8408203125</ele>
        <time>2012-03-04T10:51:03Z</time>
      </trkpt>
      <trkpt lat="43.53762" lon="5.88212">
        <ele>454.36022949219</ele>
        <time>2012-03-04T10:51:32Z</time>
      </trkpt>
      <trkpt lat="43.53762" lon="5.88213">
        <ele>454.8408203125</ele>
        <time>2012-03-04T10:52:18Z</time>
      </trkpt>
      <trkpt lat="43.53762" lon="5.88213">
        <ele>455.32153320312</ele>
        <time>2012-03-04T10:52:59Z</time>
      </trkpt>
      <trkpt lat="43.53764" lon="5.88207">
        <ele>455.80224609375</ele>
        <time>2012-03-04T10:53:37Z</time>
      </trkpt>
      <trkpt lat="43.53765" lon="5.88203">
        <ele>456.28295898438</ele>
        <time>2012-03-04T10:53:41Z</time>
      </trkpt>
      <trkpt lat="43.53772" lon="5.88172">
        <ele>457.72497558594</ele>
        <time>2012-03-04T10:54:03Z</time>
      </trkpt>
      <trkpt lat="43.53774" lon="5.88166">
        <ele>458.20556640625</ele>
        <time>2012-03-04T10:54:07Z</time>
      </trkpt>
      <trkpt lat="43.53776" lon="5.88148">
        <ele>459.64758300781</ele>
        <time>2012-03-04T10:54:21Z</time>
      </trkpt>
      <trkpt lat="43.53777" lon="5.88145">
        <ele>460.12817382812</ele>
        <time>2012-03-04T10:54:24Z</time>
      </trkpt>
      <trkpt lat="43.53774" lon="5.88104">
        <ele>461.57019042969</ele>
        <time>2012-03-04T10:54:49Z</time>
      </trkpt>
      <trkpt lat="43.53773" lon="5.88062">
        <ele>463.49279785156</ele>
        <time>2012-03-04T10:55:17Z</time>
      </trkpt>
      <trkpt lat="43.53779" lon="5.8802">
        <ele>465.89611816406</ele>
        <time>2012-03-04T10:55:47Z</time>
      </trkpt>
      <trkpt lat="43.53784" lon="5.87983">
        <ele>467.33813476562</ele>
        <time>2012-03-04T10:56:11Z</time>
      </trkpt>
      <trkpt lat="43.53784" lon="5.87933">
        <ele>470.70263671875</ele>
        <time>2012-03-04T10:56:43Z</time>
      </trkpt>
      <trkpt lat="43.53782" lon="5.87894">
        <ele>472.62536621094</ele>
        <time>2012-03-04T10:57:09Z</time>
      </trkpt>
      <trkpt lat="43.53787" lon="5.87855">
        <ele>474.06726074219</ele>
        <time>2012-03-04T10:57:35Z</time>
      </trkpt>
      <trkpt lat="43.53789" lon="5.87813">
        <ele>477.43188476562</ele>
        <time>2012-03-04T10:58:04Z</time>
      </trkpt>
      <trkpt lat="43.53786" lon="5.87772">
        <ele>480.31591796875</ele>
        <time>2012-03-04T10:58:30Z</time>
      </trkpt>
      <trkpt lat="43.53786" lon="5.87724">
        <ele>481.7578125</ele>
        <time>2012-03-04T10:59:03Z</time>
      </trkpt>
      <trkpt lat="43.5379" lon="5.87683">
        <ele>482.71923828125</ele>
        <time>2012-03-04T10:59:31Z</time>
      </trkpt>
      <trkpt lat="43.53783" lon="5.87642">
        <ele>485.12243652344</ele>
        <time>2012-03-04T10:59:56Z</time>
      </trkpt>
      <trkpt lat="43.53779" lon="5.87636">
        <ele>485.12243652344</ele>
        <time>2012-03-04T11:00:01Z</time>
      </trkpt>
      <trkpt lat="43.53775" lon="5.87603">
        <ele>485.60302734375</ele>
        <time>2012-03-04T11:00:24Z</time>
      </trkpt>
      <trkpt lat="43.538" lon="5.87594">
        <ele>485.12243652344</ele>
        <time>2012-03-04T11:00:46Z</time>
      </trkpt>
      <trkpt lat="43.53819" lon="5.87576">
        <ele>487.04504394531</ele>
        <time>2012-03-04T11:01:08Z</time>
      </trkpt>
      <trkpt lat="43.53831" lon="5.87551">
        <ele>488.48718261719</ele>
        <time>2012-03-04T11:01:29Z</time>
      </trkpt>
      <trkpt lat="43.53857" lon="5.87527">
        <ele>488.9677734375</ele>
        <time>2012-03-04T11:01:58Z</time>
      </trkpt>
      <trkpt lat="43.53882" lon="5.87499">
        <ele>490.89038085938</ele>
        <time>2012-03-04T11:02:28Z</time>
      </trkpt>
      <trkpt lat="43.53899" lon="5.87468">
        <ele>493.77429199219</ele>
        <time>2012-03-04T11:02:55Z</time>
      </trkpt>
      <trkpt lat="43.53927" lon="5.87452">
        <ele>495.21618652344</ele>
        <time>2012-03-04T11:03:21Z</time>
      </trkpt>
      <trkpt lat="43.53953" lon="5.87412">
        <ele>497.13891601562</ele>
        <time>2012-03-04T11:03:54Z</time>
      </trkpt>
      <trkpt lat="43.53969" lon="5.87379">
        <ele>499.54223632812</ele>
        <time>2012-03-04T11:04:21Z</time>
      </trkpt>
      <trkpt lat="43.53982" lon="5.8734">
        <ele>501.46484375</ele>
        <time>2012-03-04T11:04:54Z</time>
      </trkpt>
      <trkpt lat="43.53979" lon="5.87323">
        <ele>502.90673828125</ele>
        <time>2012-03-04T11:05:51Z</time>
      </trkpt>
      <trkpt lat="43.53975" lon="5.87304">
        <ele>503.38745117188</ele>
        <time>2012-03-04T11:06:18Z</time>
      </trkpt>
      <trkpt lat="43.53981" lon="5.873">
        <ele>502.42614746094</ele>
        <time>2012-03-04T11:06:51Z</time>
      </trkpt>
      <trkpt lat="43.53989" lon="5.873">
        <ele>501.94555664062</ele>
        <time>2012-03-04T11:07:01Z</time>
      </trkpt>
      <trkpt lat="43.54002" lon="5.87304">
        <ele>501.94555664062</ele>
        <time>2012-03-04T11:07:22Z</time>
      </trkpt>
      <trkpt lat="43.54006" lon="5.87307">
        <ele>501.46484375</ele>
        <time>2012-03-04T11:07:43Z</time>
      </trkpt>
      <trkpt lat="43.54021" lon="5.87319">
        <ele>500.50354003906</ele>
        <time>2012-03-04T11:08:06Z</time>
      </trkpt>
      <trkpt lat="43.54027" lon="5.87322">
        <ele>500.02294921875</ele>
        <time>2012-03-04T11:08:29Z</time>
      </trkpt>
      <trkpt lat="43.54029" lon="5.87325">
        <ele>500.02294921875</ele>
        <time>2012-03-04T11:08:43Z</time>
      </trkpt>
      <trkpt lat="43.54035" lon="5.87325">
        <ele>500.02294921875</ele>
        <time>2012-03-04T11:09:06Z</time>
      </trkpt>
      <trkpt lat="43.54037" lon="5.8732">
        <ele>499.54223632812</ele>
        <time>2012-03-04T11:09:24Z</time>
      </trkpt>
      <trkpt lat="43.54035" lon="5.87321">
        <ele>500.02294921875</ele>
        <time>2012-03-04T11:09:45Z</time>
      </trkpt>
      <trkpt lat="43.54036" lon="5.87321">
        <ele>499.54223632812</ele>
        <time>2012-03-04T11:10:03Z</time>
      </trkpt>
      <trkpt lat="43.54036" lon="5.87321">
        <ele>499.0615234375</ele>
        <time>2012-03-04T11:10:56Z</time>
      </trkpt>
      <trkpt lat="43.54037" lon="5.8732">
        <ele>499.0615234375</ele>
        <time>2012-03-04T11:12:08Z</time>
      </trkpt>
      <trkpt lat="43.54037" lon="5.87319">
        <ele>498.10034179688</ele>
        <time>2012-03-04T11:12:37Z</time>
      </trkpt>
      <trkpt lat="43.54034" lon="5.87322">
        <ele>501.46484375</ele>
        <time>2012-03-04T11:37:14Z</time>
      </trkpt>
      <trkpt lat="43.54034" lon="5.87322">
        <ele>501.46484375</ele>
        <time>2012-03-04T11:39:13Z</time>
      </trkpt>
      <trkpt lat="43.54033" lon="5.87322">
        <ele>503.38745117188</ele>
        <time>2012-03-04T11:47:42Z</time>
      </trkpt>
      <trkpt lat="43.54032" lon="5.87322">
        <ele>503.8681640625</ele>
        <time>2012-03-04T11:48:42Z</time>
      </trkpt>
      <trkpt lat="43.54033" lon="5.87323">
        <ele>504.82946777344</ele>
        <time>2012-03-04T11:52:02Z</time>
      </trkpt>
      <trkpt lat="43.54033" lon="5.87323">
        <ele>504.82946777344</ele>
        <time>2012-03-04T11:54:41Z</time>
      </trkpt>
      <trkpt lat="43.54033" lon="5.87322">
        <ele>504.34887695312</ele>
        <time>2012-03-04T11:55:17Z</time>
      </trkpt>
      <trkpt lat="43.54032" lon="5.87322">
        <ele>504.82946777344</ele>
        <time>2012-03-04T12:01:02Z</time>
      </trkpt>
      <trkpt lat="43.54033" lon="5.87323">
        <ele>504.82946777344</ele>
        <time>2012-03-04T12:02:41Z</time>
      </trkpt>
      <trkpt lat="43.54031" lon="5.87323">
        <ele>504.82946777344</ele>
        <time>2012-03-04T12:03:10Z</time>
      </trkpt>
      <trkpt lat="43.54031" lon="5.87327">
        <ele>505.31018066406</ele>
        <time>2012-03-04T12:03:23Z</time>
      </trkpt>
      <trkpt lat="43.5403" lon="5.87327">
        <ele>505.31018066406</ele>
        <time>2012-03-04T12:04:01Z</time>
      </trkpt>
      <trkpt lat="43.5403" lon="5.8733">
        <ele>505.79089355469</ele>
        <time>2012-03-04T12:04:18Z</time>
      </trkpt>
      <trkpt lat="43.54029" lon="5.8733">
        <ele>505.31018066406</ele>
        <time>2012-03-04T12:09:50Z</time>
      </trkpt>
      <trkpt lat="43.54029" lon="5.87332">
        <ele>505.31018066406</ele>
        <time>2012-03-04T12:10:19Z</time>
      </trkpt>
      <trkpt lat="43.5403" lon="5.87334">
        <ele>504.34887695312</ele>
        <time>2012-03-04T12:10:36Z</time>
      </trkpt>
      <trkpt lat="43.54031" lon="5.87334">
        <ele>504.34887695312</ele>
        <time>2012-03-04T12:10:52Z</time>
      </trkpt>
      <trkpt lat="43.54031" lon="5.87334">
        <ele>503.8681640625</ele>
        <time>2012-03-04T12:12:31Z</time>
      </trkpt>
      <trkpt lat="43.54031" lon="5.87333">
        <ele>504.34887695312</ele>
        <time>2012-03-04T12:14:57Z</time>
      </trkpt>
      <trkpt lat="43.54023" lon="5.87326">
        <ele>504.82946777344</ele>
        <time>2012-03-04T12:15:13Z</time>
      </trkpt>
      <trkpt lat="43.54011" lon="5.87318">
        <ele>504.34887695312</ele>
        <time>2012-03-04T12:15:28Z</time>
      </trkpt>
      <trkpt lat="43.53992" lon="5.87309">
        <ele>504.34887695312</ele>
        <time>2012-03-04T12:15:53Z</time>
      </trkpt>
      <trkpt lat="43.53988" lon="5.87315">
        <ele>504.82946777344</ele>
        <time>2012-03-04T12:15:59Z</time>
      </trkpt>
      <trkpt lat="43.5397" lon="5.87338">
        <ele>505.31018066406</ele>
        <time>2012-03-04T12:16:24Z</time>
      </trkpt>
      <trkpt lat="43.53947" lon="5.87361">
        <ele>503.8681640625</ele>
        <time>2012-03-04T12:16:54Z</time>
      </trkpt>
      <trkpt lat="43.53929" lon="5.87369">
        <ele>504.34887695312</ele>
        <time>2012-03-04T12:17:16Z</time>
      </trkpt>
      <trkpt lat="43.53903" lon="5.87369">
        <ele>504.34887695312</ele>
        <time>2012-03-04T12:17:44Z</time>
      </trkpt>
      <trkpt lat="43.53885" lon="5.87368">
        <ele>504.82946777344</ele>
        <time>2012-03-04T12:18:02Z</time>
      </trkpt>
      <trkpt lat="43.53862" lon="5.87365">
        <ele>504.82946777344</ele>
        <time>2012-03-04T12:18:29Z</time>
      </trkpt>
      <trkpt lat="43.53838" lon="5.87361">
        <ele>506.75207519531</ele>
        <time>2012-03-04T12:18:55Z</time>
      </trkpt>
      <trkpt lat="43.53822" lon="5.87356">
        <ele>508.19409179688</ele>
        <time>2012-03-04T12:19:14Z</time>
      </trkpt>
      <trkpt lat="43.53801" lon="5.87334">
        <ele>508.67468261719</ele>
        <time>2012-03-04T12:19:42Z</time>
      </trkpt>
      <trkpt lat="43.53784" lon="5.87315">
        <ele>509.15539550781</ele>
        <time>2012-03-04T12:20:05Z</time>
      </trkpt>
      <trkpt lat="43.53765" lon="5.87297">
        <ele>509.63610839844</ele>
        <time>2012-03-04T12:20:29Z</time>
      </trkpt>
      <trkpt lat="43.53742" lon="5.87282">
        <ele>511.07800292969</ele>
        <time>2012-03-04T12:20:57Z</time>
      </trkpt>
      <trkpt lat="43.53719" lon="5.87273">
        <ele>511.55871582031</ele>
        <time>2012-03-04T12:21:23Z</time>
      </trkpt>
      <trkpt lat="43.53693" lon="5.87274">
        <ele>514.44262695312</ele>
        <time>2012-03-04T12:21:49Z</time>
      </trkpt>
      <trkpt lat="43.5368" lon="5.87278">
        <ele>515.88464355469</ele>
        <time>2012-03-04T12:22:05Z</time>
      </trkpt>
      <trkpt lat="43.53657" lon="5.87285">
        <ele>517.80725097656</ele>
        <time>2012-03-04T12:22:29Z</time>
      </trkpt>
      <trkpt lat="43.53626" lon="5.87294">
        <ele>518.7685546875</ele>
        <time>2012-03-04T12:23:04Z</time>
      </trkpt>
      <trkpt lat="43.53597" lon="5.87289">
        <ele>519.24926757812</ele>
        <time>2012-03-04T12:23:35Z</time>
      </trkpt>
      <trkpt lat="43.53568" lon="5.87284">
        <ele>519.24926757812</ele>
        <time>2012-03-04T12:24:03Z</time>
      </trkpt>
      <trkpt lat="43.53531" lon="5.87269">
        <ele>519.24926757812</ele>
        <time>2012-03-04T12:24:38Z</time>
      </trkpt>
      <trkpt lat="43.53528" lon="5.87235">
        <ele>518.7685546875</ele>
        <time>2012-03-04T12:25:05Z</time>
      </trkpt>
      <trkpt lat="43.53523" lon="5.87191">
        <ele>517.32666015625</ele>
        <time>2012-03-04T12:25:36Z</time>
      </trkpt>
      <trkpt lat="43.53509" lon="5.87147">
        <ele>516.365234375</ele>
        <time>2012-03-04T12:26:09Z</time>
      </trkpt>
      <trkpt lat="43.53494" lon="5.87129">
        <ele>513.96203613281</ele>
        <time>2012-03-04T12:26:31Z</time>
      </trkpt>
      <trkpt lat="43.53466" lon="5.87129">
        <ele>509.63610839844</ele>
        <time>2012-03-04T12:27:00Z</time>
      </trkpt>
      <trkpt lat="43.53438" lon="5.87112">
        <ele>507.71350097656</ele>
        <time>2012-03-04T12:27:30Z</time>
      </trkpt>
      <trkpt lat="43.53405" lon="5.87111">
        <ele>505.79089355469</ele>
        <time>2012-03-04T12:28:02Z</time>
      </trkpt>
      <trkpt lat="43.53376" lon="5.87118">
        <ele>506.75207519531</ele>
        <time>2012-03-04T12:28:27Z</time>
      </trkpt>
      <trkpt lat="43.53335" lon="5.87131">
        <ele>505.79089355469</ele>
        <time>2012-03-04T12:29:05Z</time>
      </trkpt>
      <trkpt lat="43.53301" lon="5.87137">
        <ele>503.8681640625</ele>
        <time>2012-03-04T12:29:36Z</time>
      </trkpt>
      <trkpt lat="43.53273" lon="5.87147">
        <ele>502.42614746094</ele>
        <time>2012-03-04T12:30:02Z</time>
      </trkpt>
      <trkpt lat="43.5325" lon="5.87163">
        <ele>502.42614746094</ele>
        <time>2012-03-04T12:30:26Z</time>
      </trkpt>
      <trkpt lat="43.53225" lon="5.87187">
        <ele>501.94555664062</ele>
        <time>2012-03-04T12:30:53Z</time>
      </trkpt>
      <trkpt lat="43.53196" lon="5.87219">
        <ele>502.90673828125</ele>
        <time>2012-03-04T12:31:25Z</time>
      </trkpt>
      <trkpt lat="43.53168" lon="5.87248">
        <ele>502.90673828125</ele>
        <time>2012-03-04T12:31:56Z</time>
      </trkpt>
      <trkpt lat="43.53145" lon="5.8727">
        <ele>503.38745117188</ele>
        <time>2012-03-04T12:32:21Z</time>
      </trkpt>
      <trkpt lat="43.53118" lon="5.87292">
        <ele>504.34887695312</ele>
        <time>2012-03-04T12:32:49Z</time>
      </trkpt>
      <trkpt lat="43.53105" lon="5.87303">
        <ele>502.90673828125</ele>
        <time>2012-03-04T12:33:06Z</time>
      </trkpt>
      <trkpt lat="43.53083" lon="5.87325">
        <ele>501.94555664062</ele>
        <time>2012-03-04T12:33:33Z</time>
      </trkpt>
      <trkpt lat="43.53069" lon="5.8736">
        <ele>501.46484375</ele>
        <time>2012-03-04T12:34:01Z</time>
      </trkpt>
      <trkpt lat="43.53065" lon="5.87404">
        <ele>500.02294921875</ele>
        <time>2012-03-04T12:34:32Z</time>
      </trkpt>
      <trkpt lat="43.53064" lon="5.87446">
        <ele>498.10034179688</ele>
        <time>2012-03-04T12:35:00Z</time>
      </trkpt>
      <trkpt lat="43.53069" lon="5.87496">
        <ele>499.0615234375</ele>
        <time>2012-03-04T12:35:33Z</time>
      </trkpt>
      <trkpt lat="43.53075" lon="5.87546">
        <ele>498.10034179688</ele>
        <time>2012-03-04T12:36:06Z</time>
      </trkpt>
      <trkpt lat="43.5308" lon="5.87594">
        <ele>498.10034179688</ele>
        <time>2012-03-04T12:36:38Z</time>
      </trkpt>
      <trkpt lat="43.53085" lon="5.87644">
        <ele>498.10034179688</ele>
        <time>2012-03-04T12:37:11Z</time>
      </trkpt>
      <trkpt lat="43.5309" lon="5.87691">
        <ele>496.65832519531</ele>
        <time>2012-03-04T12:37:42Z</time>
      </trkpt>
      <trkpt lat="43.53084" lon="5.87735">
        <ele>497.13891601562</ele>
        <time>2012-03-04T12:38:12Z</time>
      </trkpt>
      <trkpt lat="43.53081" lon="5.87779">
        <ele>495.69689941406</ele>
        <time>2012-03-04T12:38:40Z</time>
      </trkpt>
      <trkpt lat="43.53065" lon="5.87817">
        <ele>493.29357910156</ele>
        <time>2012-03-04T12:39:09Z</time>
      </trkpt>
      <trkpt lat="43.53044" lon="5.87836">
        <ele>492.33239746094</ele>
        <time>2012-03-04T12:39:33Z</time>
      </trkpt>
      <trkpt lat="43.53022" lon="5.87868">
        <ele>491.85168457031</ele>
        <time>2012-03-04T12:40:02Z</time>
      </trkpt>
      <trkpt lat="43.52993" lon="5.87902">
        <ele>491.37097167969</ele>
        <time>2012-03-04T12:40:35Z</time>
      </trkpt>
      <trkpt lat="43.52968" lon="5.87933">
        <ele>489.44836425781</ele>
        <time>2012-03-04T12:41:05Z</time>
      </trkpt>
      <trkpt lat="43.5295" lon="5.87953">
        <ele>487.04504394531</ele>
        <time>2012-03-04T12:41:26Z</time>
      </trkpt>
      <trkpt lat="43.52925" lon="5.87984">
        <ele>484.64184570312</ele>
        <time>2012-03-04T12:41:55Z</time>
      </trkpt>
      <trkpt lat="43.52899" lon="5.88019">
        <ele>485.12243652344</ele>
        <time>2012-03-04T12:42:26Z</time>
      </trkpt>
      <trkpt lat="43.52878" lon="5.88047">
        <ele>482.23852539062</ele>
        <time>2012-03-04T12:42:52Z</time>
      </trkpt>
      <trkpt lat="43.52854" lon="5.88078">
        <ele>482.71923828125</ele>
        <time>2012-03-04T12:43:21Z</time>
      </trkpt>
      <trkpt lat="43.52836" lon="5.88113">
        <ele>480.79663085938</ele>
        <time>2012-03-04T12:43:49Z</time>
      </trkpt>
      <trkpt lat="43.52832" lon="5.88156">
        <ele>481.27722167969</ele>
        <time>2012-03-04T12:44:17Z</time>
      </trkpt>
      <trkpt lat="43.52834" lon="5.88197">
        <ele>478.87390136719</ele>
        <time>2012-03-04T12:44:42Z</time>
      </trkpt>
      <trkpt lat="43.52826" lon="5.88236">
        <ele>480.79663085938</ele>
        <time>2012-03-04T12:45:08Z</time>
      </trkpt>
      <trkpt lat="43.52804" lon="5.88258">
        <ele>480.31591796875</ele>
        <time>2012-03-04T12:45:31Z</time>
      </trkpt>
      <trkpt lat="43.52781" lon="5.88289">
        <ele>479.3544921875</ele>
        <time>2012-03-04T12:45:59Z</time>
      </trkpt>
      <trkpt lat="43.52764" lon="5.88316">
        <ele>478.87390136719</ele>
        <time>2012-03-04T12:46:26Z</time>
      </trkpt>
      <trkpt lat="43.52763" lon="5.88318">
        <ele>476.95129394531</ele>
        <time>2012-03-04T12:46:44Z</time>
      </trkpt>
      <trkpt lat="43.52761" lon="5.88321">
        <ele>476.47058105469</ele>
        <time>2012-03-04T12:47:08Z</time>
      </trkpt>
      <trkpt lat="43.5276" lon="5.88322">
        <ele>475.98986816406</ele>
        <time>2012-03-04T12:47:35Z</time>
      </trkpt>
      <trkpt lat="43.52761" lon="5.88322">
        <ele>475.98986816406</ele>
        <time>2012-03-04T12:48:38Z</time>
      </trkpt>
      <trkpt lat="43.52752" lon="5.88331">
        <ele>476.95129394531</ele>
        <time>2012-03-04T12:51:26Z</time>
      </trkpt>
      <trkpt lat="43.52748" lon="5.88338">
        <ele>476.95129394531</ele>
        <time>2012-03-04T12:51:32Z</time>
      </trkpt>
      <trkpt lat="43.52729" lon="5.88365">
        <ele>475.98986816406</ele>
        <time>2012-03-04T12:52:00Z</time>
      </trkpt>
      <trkpt lat="43.52708" lon="5.88386">
        <ele>475.02868652344</ele>
        <time>2012-03-04T12:52:26Z</time>
      </trkpt>
      <trkpt lat="43.52675" lon="5.88405">
        <ele>473.10607910156</ele>
        <time>2012-03-04T12:52:57Z</time>
      </trkpt>
      <trkpt lat="43.5264" lon="5.88419">
        <ele>470.22192382812</ele>
        <time>2012-03-04T12:53:30Z</time>
      </trkpt>
      <trkpt lat="43.52598" lon="5.8844">
        <ele>469.74133300781</ele>
        <time>2012-03-04T12:54:09Z</time>
      </trkpt>
      <trkpt lat="43.52567" lon="5.88459">
        <ele>468.78002929688</ele>
        <time>2012-03-04T12:54:39Z</time>
      </trkpt>
      <trkpt lat="43.52541" lon="5.88478">
        <ele>468.29931640625</ele>
        <time>2012-03-04T12:55:07Z</time>
      </trkpt>
      <trkpt lat="43.5251" lon="5.88481">
        <ele>467.33813476562</ele>
        <time>2012-03-04T12:55:35Z</time>
      </trkpt>
      <trkpt lat="43.52475" lon="5.8849">
        <ele>467.81872558594</ele>
        <time>2012-03-04T12:56:06Z</time>
      </trkpt>
      <trkpt lat="43.52439" lon="5.88497">
        <ele>466.37670898438</ele>
        <time>2012-03-04T12:56:38Z</time>
      </trkpt>
      <trkpt lat="43.524" lon="5.88502">
        <ele>464.93481445312</ele>
        <time>2012-03-04T12:57:11Z</time>
      </trkpt>
      <trkpt lat="43.52375" lon="5.88516">
        <ele>464.93481445312</ele>
        <time>2012-03-04T12:57:35Z</time>
      </trkpt>
      <trkpt lat="43.52354" lon="5.88554">
        <ele>462.53137207031</ele>
        <time>2012-03-04T12:58:06Z</time>
      </trkpt>
      <trkpt lat="43.52337" lon="5.88582">
        <ele>460.12817382812</ele>
        <time>2012-03-04T12:58:33Z</time>
      </trkpt>
      <trkpt lat="43.52327" lon="5.88598">
        <ele>460.12817382812</ele>
        <time>2012-03-04T12:58:49Z</time>
      </trkpt>
      <trkpt lat="43.52307" lon="5.88614">
        <ele>456.76354980469</ele>
        <time>2012-03-04T12:59:12Z</time>
      </trkpt>
      <trkpt lat="43.52302" lon="5.8862">
        <ele>455.80224609375</ele>
        <time>2012-03-04T12:59:19Z</time>
      </trkpt>
      <trkpt lat="43.52281" lon="5.88641">
        <ele>450.99560546875</ele>
        <time>2012-03-04T12:59:45Z</time>
      </trkpt>
      <trkpt lat="43.52258" lon="5.8864">
        <ele>447.63098144531</ele>
        <time>2012-03-04T13:00:07Z</time>
      </trkpt>
      <trkpt lat="43.52235" lon="5.88638">
        <ele>444.7470703125</ele>
        <time>2012-03-04T13:00:29Z</time>
      </trkpt>
      <trkpt lat="43.52209" lon="5.88635">
        <ele>440.90185546875</ele>
        <time>2012-03-04T13:00:54Z</time>
      </trkpt>
      <trkpt lat="43.52184" lon="5.88628">
        <ele>438.01782226562</ele>
        <time>2012-03-04T13:01:19Z</time>
      </trkpt>
      <trkpt lat="43.52158" lon="5.8863">
        <ele>436.57592773438</ele>
        <time>2012-03-04T13:01:43Z</time>
      </trkpt>
      <trkpt lat="43.52134" lon="5.88629">
        <ele>433.69189453125</ele>
        <time>2012-03-04T13:02:06Z</time>
      </trkpt>
      <trkpt lat="43.52107" lon="5.8863">
        <ele>430.32727050781</ele>
        <time>2012-03-04T13:02:31Z</time>
      </trkpt>
      <trkpt lat="43.52085" lon="5.88632">
        <ele>426.96276855469</ele>
        <time>2012-03-04T13:02:52Z</time>
      </trkpt>
      <trkpt lat="43.52073" lon="5.88632">
        <ele>425.52075195312</ele>
        <time>2012-03-04T13:03:04Z</time>
      </trkpt>
      <trkpt lat="43.5205" lon="5.88623">
        <ele>424.55944824219</ele>
        <time>2012-03-04T13:03:27Z</time>
      </trkpt>
      <trkpt lat="43.52023" lon="5.88619">
        <ele>418.31079101562</ele>
        <time>2012-03-04T13:03:53Z</time>
      </trkpt>
      <trkpt lat="43.51999" lon="5.88626">
        <ele>417.83020019531</ele>
        <time>2012-03-04T13:04:15Z</time>
      </trkpt>
      <trkpt lat="43.51976" lon="5.8864">
        <ele>416.38818359375</ele>
        <time>2012-03-04T13:04:39Z</time>
      </trkpt>
      <trkpt lat="43.51967" lon="5.88639">
        <ele>414.94616699219</ele>
        <time>2012-03-04T13:04:48Z</time>
      </trkpt>
      <trkpt lat="43.51943" lon="5.88625">
        <ele>413.02355957031</ele>
        <time>2012-03-04T13:05:14Z</time>
      </trkpt>
      <trkpt lat="43.51919" lon="5.8861">
        <ele>410.62023925781</ele>
        <time>2012-03-04T13:05:39Z</time>
      </trkpt>
      <trkpt lat="43.51891" lon="5.88594">
        <ele>410.62023925781</ele>
        <time>2012-03-04T13:06:07Z</time>
      </trkpt>
      <trkpt lat="43.51868" lon="5.88584">
        <ele>408.21704101562</ele>
        <time>2012-03-04T13:06:29Z</time>
      </trkpt>
      <trkpt lat="43.51835" lon="5.88568">
        <ele>404.85229492188</ele>
        <time>2012-03-04T13:07:03Z</time>
      </trkpt>
      <trkpt lat="43.51808" lon="5.88552">
        <ele>401.48779296875</ele>
        <time>2012-03-04T13:07:31Z</time>
      </trkpt>
      <trkpt lat="43.51776" lon="5.88562">
        <ele>397.16174316406</ele>
        <time>2012-03-04T13:08:01Z</time>
      </trkpt>
      <trkpt lat="43.51751" lon="5.88561">
        <ele>395.71984863281</ele>
        <time>2012-03-04T13:08:26Z</time>
      </trkpt>
      <trkpt lat="43.51719" lon="5.88556">
        <ele>391.87451171875</ele>
        <time>2012-03-04T13:08:56Z</time>
      </trkpt>
      <trkpt lat="43.51715" lon="5.88556">
        <ele>391.39379882812</ele>
        <time>2012-03-04T13:09:00Z</time>
      </trkpt>
      <trkpt lat="43.51682" lon="5.88548">
        <ele>388.51000976562</ele>
        <time>2012-03-04T13:09:32Z</time>
      </trkpt>
      <trkpt lat="43.51663" lon="5.88543">
        <ele>387.06799316406</ele>
        <time>2012-03-04T13:09:51Z</time>
      </trkpt>
      <trkpt lat="43.51636" lon="5.88547">
        <ele>386.10668945312</ele>
        <time>2012-03-04T13:10:16Z</time>
      </trkpt>
      <trkpt lat="43.51612" lon="5.88554">
        <ele>384.66479492188</ele>
        <time>2012-03-04T13:10:39Z</time>
      </trkpt>
      <trkpt lat="43.51594" lon="5.88567">
        <ele>383.70324707031</ele>
        <time>2012-03-04T13:10:59Z</time>
      </trkpt>
      <trkpt lat="43.51572" lon="5.8859">
        <ele>380.81945800781</ele>
        <time>2012-03-04T13:11:25Z</time>
      </trkpt>
      <trkpt lat="43.51543" lon="5.88601">
        <ele>377.45483398438</ele>
        <time>2012-03-04T13:11:53Z</time>
      </trkpt>
      <trkpt lat="43.51514" lon="5.88616">
        <ele>375.53210449219</ele>
        <time>2012-03-04T13:12:22Z</time>
      </trkpt>
      <trkpt lat="43.51478" lon="5.88627">
        <ele>372.64819335938</ele>
        <time>2012-03-04T13:12:57Z</time>
      </trkpt>
      <trkpt lat="43.51476" lon="5.88628">
        <ele>372.16748046875</ele>
        <time>2012-03-04T13:12:59Z</time>
      </trkpt>
      <trkpt lat="43.51471" lon="5.8863">
        <ele>371.68688964844</ele>
        <time>2012-03-04T13:13:04Z</time>
      </trkpt>
      <trkpt lat="43.51442" lon="5.88645">
        <ele>371.20629882812</ele>
        <time>2012-03-04T13:13:33Z</time>
      </trkpt>
      <trkpt lat="43.51418" lon="5.88658">
        <ele>367.84155273438</ele>
        <time>2012-03-04T13:13:58Z</time>
      </trkpt>
      <trkpt lat="43.51392" lon="5.88669">
        <ele>366.88024902344</ele>
        <time>2012-03-04T13:14:23Z</time>
      </trkpt>
      <trkpt lat="43.51359" lon="5.88691">
        <ele>364.95764160156</ele>
        <time>2012-03-04T13:14:59Z</time>
      </trkpt>
      <trkpt lat="43.51337" lon="5.88687">
        <ele>362.07373046875</ele>
        <time>2012-03-04T13:15:22Z</time>
      </trkpt>
      <trkpt lat="43.51313" lon="5.88676">
        <ele>358.22839355469</ele>
        <time>2012-03-04T13:15:47Z</time>
      </trkpt>
      <trkpt lat="43.51293" lon="5.88675">
        <ele>356.30578613281</ele>
        <time>2012-03-04T13:16:07Z</time>
      </trkpt>
      <trkpt lat="43.51272" lon="5.88687">
        <ele>354.38317871094</ele>
        <time>2012-03-04T13:16:30Z</time>
      </trkpt>
      <trkpt lat="43.5127" lon="5.88689">
        <ele>353.90258789062</ele>
        <time>2012-03-04T13:16:33Z</time>
      </trkpt>
      <trkpt lat="43.51268" lon="5.88691">
        <ele>353.90258789062</ele>
        <time>2012-03-04T13:16:35Z</time>
      </trkpt>
      <trkpt lat="43.51249" lon="5.88702">
        <ele>352.94116210938</ele>
        <time>2012-03-04T13:16:56Z</time>
      </trkpt>
      <trkpt lat="43.5124" lon="5.88712">
        <ele>352.94116210938</ele>
        <time>2012-03-04T13:17:20Z</time>
      </trkpt>
      <trkpt lat="43.51242" lon="5.88712">
        <ele>352.94116210938</ele>
        <time>2012-03-04T13:17:38Z</time>
      </trkpt>
      <trkpt lat="43.51241" lon="5.88714">
        <ele>353.90258789062</ele>
        <time>2012-03-04T13:18:50Z</time>
      </trkpt>
      <trkpt lat="43.51238" lon="5.88708">
        <ele>355.34448242188</ele>
        <time>2012-03-04T13:19:57Z</time>
      </trkpt>
      <trkpt lat="43.51241" lon="5.88712">
        <ele>354.86376953125</ele>
        <time>2012-03-04T13:22:38Z</time>
      </trkpt>
      <trkpt lat="43.51241" lon="5.88712">
        <ele>355.34448242188</ele>
        <time>2012-03-04T13:27:31Z</time>
      </trkpt>
      <trkpt lat="43.5124" lon="5.88709">
        <ele>356.78637695312</ele>
        <time>2012-03-04T13:34:58Z</time>
      </trkpt>
      <trkpt lat="43.51238" lon="5.88711">
        <ele>356.30578613281</ele>
        <time>2012-03-04T13:35:44Z</time>
      </trkpt>
      <trkpt lat="43.51237" lon="5.88709">
        <ele>355.34448242188</ele>
        <time>2012-03-04T13:36:48Z</time>
      </trkpt>
      <trkpt lat="43.51237" lon="5.88709">
        <ele>354.86376953125</ele>
        <time>2012-03-04T13:39:12Z</time>
      </trkpt>
      <trkpt lat="43.51236" lon="5.88719">
        <ele>355.34448242188</ele>
        <time>2012-03-04T13:40:24Z</time>
      </trkpt>
      <trkpt lat="43.51234" lon="5.88714">
        <ele>352.46057128906</ele>
        <time>2012-03-04T13:41:35Z</time>
      </trkpt>
      <trkpt lat="43.51234" lon="5.88714">
        <ele>351.49914550781</ele>
        <time>2012-03-04T13:42:05Z</time>
      </trkpt>
      <trkpt lat="43.51233" lon="5.88711">
        <ele>351.01843261719</ele>
        <time>2012-03-04T13:42:27Z</time>
      </trkpt>
      <trkpt lat="43.51218" lon="5.88714">
        <ele>348.615234375</ele>
        <time>2012-03-04T13:43:00Z</time>
      </trkpt>
      <trkpt lat="43.51187" lon="5.8871">
        <ele>346.69262695312</ele>
        <time>2012-03-04T13:43:22Z</time>
      </trkpt>
      <trkpt lat="43.51175" lon="5.88708">
        <ele>348.13464355469</ele>
        <time>2012-03-04T13:43:39Z</time>
      </trkpt>
      <trkpt lat="43.51173" lon="5.88708">
        <ele>347.65393066406</ele>
        <time>2012-03-04T13:43:43Z</time>
      </trkpt>
      <trkpt lat="43.51153" lon="5.88705">
        <ele>345.73132324219</ele>
        <time>2012-03-04T13:44:01Z</time>
      </trkpt>
      <trkpt lat="43.51132" lon="5.88678">
        <ele>345.73132324219</ele>
        <time>2012-03-04T13:44:22Z</time>
      </trkpt>
      <trkpt lat="43.51103" lon="5.88669">
        <ele>345.73132324219</ele>
        <time>2012-03-04T13:44:45Z</time>
      </trkpt>
      <trkpt lat="43.51102" lon="5.8863">
        <ele>343.32788085938</ele>
        <time>2012-03-04T13:45:08Z</time>
      </trkpt>
      <trkpt lat="43.51101" lon="5.88599">
        <ele>339.48266601562</ele>
        <time>2012-03-04T13:45:28Z</time>
      </trkpt>
      <trkpt lat="43.51089" lon="5.88564">
        <ele>336.1181640625</ele>
        <time>2012-03-04T13:45:54Z</time>
      </trkpt>
      <trkpt lat="43.51071" lon="5.88538">
        <ele>333.23413085938</ele>
        <time>2012-03-04T13:46:16Z</time>
      </trkpt>
      <trkpt lat="43.51051" lon="5.88519">
        <ele>334.19543457031</ele>
        <time>2012-03-04T13:46:35Z</time>
      </trkpt>
      <trkpt lat="43.51049" lon="5.88518">
        <ele>334.19543457031</ele>
        <time>2012-03-04T13:46:37Z</time>
      </trkpt>
      <trkpt lat="43.51045" lon="5.88516">
        <ele>334.19543457031</ele>
        <time>2012-03-04T13:46:41Z</time>
      </trkpt>
      <trkpt lat="43.51023" lon="5.88501">
        <ele>335.15673828125</ele>
        <time>2012-03-04T13:47:04Z</time>
      </trkpt>
      <trkpt lat="43.50998" lon="5.88499">
        <ele>332.75354003906</ele>
        <time>2012-03-04T13:47:29Z</time>
      </trkpt>
      <trkpt lat="43.50966" lon="5.88499">
        <ele>333.23413085938</ele>
        <time>2012-03-04T13:47:57Z</time>
      </trkpt>
      <trkpt lat="43.50951" lon="5.88502">
        <ele>333.23413085938</ele>
        <time>2012-03-04T13:48:18Z</time>
      </trkpt>
      <trkpt lat="43.50949" lon="5.88501">
        <ele>332.75354003906</ele>
        <time>2012-03-04T13:48:24Z</time>
      </trkpt>
      <trkpt lat="43.50937" lon="5.88498">
        <ele>331.3115234375</ele>
        <time>2012-03-04T13:48:37Z</time>
      </trkpt>
      <trkpt lat="43.50924" lon="5.88488">
        <ele>328.42761230469</ele>
        <time>2012-03-04T13:48:51Z</time>
      </trkpt>
      <trkpt lat="43.5092" lon="5.88485">
        <ele>327.94677734375</ele>
        <time>2012-03-04T13:48:56Z</time>
      </trkpt>
      <trkpt lat="43.50912" lon="5.88475">
        <ele>327.94677734375</ele>
        <time>2012-03-04T13:49:06Z</time>
      </trkpt>
      <trkpt lat="43.50896" lon="5.88452">
        <ele>326.98559570312</ele>
        <time>2012-03-04T13:49:29Z</time>
      </trkpt>
      <trkpt lat="43.50871" lon="5.88438">
        <ele>327.94677734375</ele>
        <time>2012-03-04T13:49:54Z</time>
      </trkpt>
      <trkpt lat="43.50852" lon="5.88419">
        <ele>328.42761230469</ele>
        <time>2012-03-04T13:50:16Z</time>
      </trkpt>
      <trkpt lat="43.50838" lon="5.88408">
        <ele>326.5048828125</ele>
        <time>2012-03-04T13:50:32Z</time>
      </trkpt>
      <trkpt lat="43.50824" lon="5.88397">
        <ele>324.58227539062</ele>
        <time>2012-03-04T13:50:47Z</time>
      </trkpt>
      <trkpt lat="43.50822" lon="5.88361">
        <ele>321.69836425781</ele>
        <time>2012-03-04T13:51:11Z</time>
      </trkpt>
      <trkpt lat="43.50822" lon="5.88351">
        <ele>320.73706054688</ele>
        <time>2012-03-04T13:51:18Z</time>
      </trkpt>
      <trkpt lat="43.50825" lon="5.88345">
        <ele>321.69836425781</ele>
        <time>2012-03-04T13:51:24Z</time>
      </trkpt>
      <trkpt lat="43.50819" lon="5.88313">
        <ele>319.77563476562</ele>
        <time>2012-03-04T13:51:47Z</time>
      </trkpt>
      <trkpt lat="43.50816" lon="5.88309">
        <ele>318.33361816406</ele>
        <time>2012-03-04T13:51:58Z</time>
      </trkpt>
      <trkpt lat="43.50808" lon="5.88302">
        <ele>317.85302734375</ele>
        <time>2012-03-04T13:52:05Z</time>
      </trkpt>
      <trkpt lat="43.50784" lon="5.88291">
        <ele>317.85302734375</ele>
        <time>2012-03-04T13:52:24Z</time>
      </trkpt>
      <trkpt lat="43.50754" lon="5.88303">
        <ele>319.77563476562</ele>
        <time>2012-03-04T13:52:49Z</time>
      </trkpt>
      <trkpt lat="43.50736" lon="5.88331">
        <ele>319.77563476562</ele>
        <time>2012-03-04T13:53:15Z</time>
      </trkpt>
      <trkpt lat="43.50725" lon="5.88358">
        <ele>319.29504394531</ele>
        <time>2012-03-04T13:53:35Z</time>
      </trkpt>
      <trkpt lat="43.50711" lon="5.8838">
        <ele>317.85302734375</ele>
        <time>2012-03-04T13:53:53Z</time>
      </trkpt>
      <trkpt lat="43.50692" lon="5.88412">
        <ele>316.41101074219</ele>
        <time>2012-03-04T13:54:20Z</time>
      </trkpt>
      <trkpt lat="43.50672" lon="5.88436">
        <ele>314.48840332031</ele>
        <time>2012-03-04T13:54:43Z</time>
      </trkpt>
      <trkpt lat="43.50649" lon="5.88443">
        <ele>313.04650878906</ele>
        <time>2012-03-04T13:55:04Z</time>
      </trkpt>
      <trkpt lat="43.50628" lon="5.88455">
        <ele>311.6044921875</ele>
        <time>2012-03-04T13:55:25Z</time>
      </trkpt>
      <trkpt lat="43.50614" lon="5.88459">
        <ele>312.56579589844</ele>
        <time>2012-03-04T13:55:39Z</time>
      </trkpt>
      <trkpt lat="43.50594" lon="5.88462">
        <ele>312.56579589844</ele>
        <time>2012-03-04T13:55:59Z</time>
      </trkpt>
      <trkpt lat="43.5057" lon="5.88484">
        <ele>311.6044921875</ele>
        <time>2012-03-04T13:56:26Z</time>
      </trkpt>
      <trkpt lat="43.50562" lon="5.88491">
        <ele>311.12377929688</ele>
        <time>2012-03-04T13:56:36Z</time>
      </trkpt>
      <trkpt lat="43.50553" lon="5.88508">
        <ele>311.12377929688</ele>
        <time>2012-03-04T13:56:53Z</time>
      </trkpt>
      <trkpt lat="43.50537" lon="5.88532">
        <ele>310.64306640625</ele>
        <time>2012-03-04T13:57:15Z</time>
      </trkpt>
      <trkpt lat="43.50522" lon="5.88554">
        <ele>311.12377929688</ele>
        <time>2012-03-04T13:57:41Z</time>
      </trkpt>
      <trkpt lat="43.50522" lon="5.88554">
        <ele>311.6044921875</ele>
        <time>2012-03-04T13:57:53Z</time>
      </trkpt>
      <trkpt lat="43.50519" lon="5.88552">
        <ele>312.56579589844</ele>
        <time>2012-03-04T13:57:56Z</time>
      </trkpt>
      <trkpt lat="43.50515" lon="5.88555">
        <ele>312.56579589844</ele>
        <time>2012-03-04T13:58:00Z</time>
      </trkpt>
      <trkpt lat="43.50494" lon="5.8857">
        <ele>311.12377929688</ele>
        <time>2012-03-04T13:58:21Z</time>
      </trkpt>
      <trkpt lat="43.5049" lon="5.88573">
        <ele>311.12377929688</ele>
        <time>2012-03-04T13:58:26Z</time>
      </trkpt>
      <trkpt lat="43.50482" lon="5.88577">
        <ele>309.68188476562</ele>
        <time>2012-03-04T13:58:34Z</time>
      </trkpt>
      <trkpt lat="43.50458" lon="5.88596">
        <ele>309.201171875</ele>
        <time>2012-03-04T13:58:58Z</time>
      </trkpt>
      <trkpt lat="43.50433" lon="5.88616">
        <ele>309.201171875</ele>
        <time>2012-03-04T13:59:24Z</time>
      </trkpt>
      <trkpt lat="43.50422" lon="5.88621">
        <ele>309.68188476562</ele>
        <time>2012-03-04T13:59:36Z</time>
      </trkpt>
      <trkpt lat="43.50391" lon="5.88639">
        <ele>308.72045898438</ele>
        <time>2012-03-04T14:00:01Z</time>
      </trkpt>
      <trkpt lat="43.50375" lon="5.88655">
        <ele>306.31726074219</ele>
        <time>2012-03-04T14:00:17Z</time>
      </trkpt>
      <trkpt lat="43.50352" lon="5.88685">
        <ele>304.39465332031</ele>
        <time>2012-03-04T14:00:46Z</time>
      </trkpt>
      <trkpt lat="43.50359" lon="5.88716">
        <ele>304.87524414062</ele>
        <time>2012-03-04T14:01:09Z</time>
      </trkpt>
      <trkpt lat="43.50364" lon="5.88759">
        <ele>305.35595703125</ele>
        <time>2012-03-04T14:01:37Z</time>
      </trkpt>
      <trkpt lat="43.50367" lon="5.88806">
        <ele>307.27856445312</ele>
        <time>2012-03-04T14:02:06Z</time>
      </trkpt>
      <trkpt lat="43.50373" lon="5.8884">
        <ele>312.56579589844</ele>
        <time>2012-03-04T14:02:30Z</time>
      </trkpt>
      <trkpt lat="43.50383" lon="5.8887">
        <ele>313.52722167969</ele>
        <time>2012-03-04T14:02:53Z</time>
      </trkpt>
      <trkpt lat="43.50393" lon="5.88914">
        <ele>313.52722167969</ele>
        <time>2012-03-04T14:03:22Z</time>
      </trkpt>
      <trkpt lat="43.50391" lon="5.88919">
        <ele>312.08520507812</ele>
        <time>2012-03-04T14:03:36Z</time>
      </trkpt>
      <trkpt lat="43.50393" lon="5.8893">
        <ele>313.04650878906</ele>
        <time>2012-03-04T14:04:19Z</time>
      </trkpt>
      <trkpt lat="43.50395" lon="5.88941">
        <ele>313.52722167969</ele>
        <time>2012-03-04T14:05:08Z</time>
      </trkpt>
      <trkpt lat="43.50399" lon="5.8896">
        <ele>312.08520507812</ele>
        <time>2012-03-04T14:05:28Z</time>
      </trkpt>
      <trkpt lat="43.50396" lon="5.88966">
        <ele>311.12377929688</ele>
        <time>2012-03-04T14:05:41Z</time>
      </trkpt>
      <trkpt lat="43.50392" lon="5.88978">
        <ele>310.64306640625</ele>
        <time>2012-03-04T14:05:57Z</time>
      </trkpt>
      <trkpt lat="43.50398" lon="5.88981">
        <ele>311.12377929688</ele>
        <time>2012-03-04T14:06:07Z</time>
      </trkpt>
      <trkpt lat="43.50403" lon="5.88982">
        <ele>311.12377929688</ele>
        <time>2012-03-04T14:06:12Z</time>
      </trkpt>
      <trkpt lat="43.50419" lon="5.89022">
        <ele>308.72045898438</ele>
        <time>2012-03-04T14:06:39Z</time>
      </trkpt>
      <trkpt lat="43.50427" lon="5.89062">
        <ele>310.16247558594</ele>
        <time>2012-03-04T14:07:07Z</time>
      </trkpt>
      <trkpt lat="43.50434" lon="5.89093">
        <ele>310.64306640625</ele>
        <time>2012-03-04T14:07:28Z</time>
      </trkpt>
      <trkpt lat="43.50438" lon="5.8911">
        <ele>311.12377929688</ele>
        <time>2012-03-04T14:07:41Z</time>
      </trkpt>
      <trkpt lat="43.50458" lon="5.89126">
        <ele>311.12377929688</ele>
        <time>2012-03-04T14:08:03Z</time>
      </trkpt>
      <trkpt lat="43.5048" lon="5.89147">
        <ele>314.48840332031</ele>
        <time>2012-03-04T14:08:29Z</time>
      </trkpt>
      <trkpt lat="43.50478" lon="5.89181">
        <ele>316.89172363281</ele>
        <time>2012-03-04T14:08:51Z</time>
      </trkpt>
      <trkpt lat="43.50477" lon="5.89187">
        <ele>315.93041992188</ele>
        <time>2012-03-04T14:08:54Z</time>
      </trkpt>
      <trkpt lat="43.50485" lon="5.89231">
        <ele>315.93041992188</ele>
        <time>2012-03-04T14:09:22Z</time>
      </trkpt>
      <trkpt lat="43.50492" lon="5.89266">
        <ele>317.85302734375</ele>
        <time>2012-03-04T14:09:45Z</time>
      </trkpt>
      <trkpt lat="43.50471" lon="5.89309">
        <ele>314.48840332031</ele>
        <time>2012-03-04T14:10:14Z</time>
      </trkpt>
      <trkpt lat="43.50467" lon="5.89316">
        <ele>314.0078125</ele>
        <time>2012-03-04T14:10:20Z</time>
      </trkpt>
      <trkpt lat="43.50465" lon="5.89316">
        <ele>314.48840332031</ele>
        <time>2012-03-04T14:10:22Z</time>
      </trkpt>
      <trkpt lat="43.50462" lon="5.89321">
        <ele>314.0078125</ele>
        <time>2012-03-04T14:10:27Z</time>
      </trkpt>
      <trkpt lat="43.5046" lon="5.89326">
        <ele>314.48840332031</ele>
        <time>2012-03-04T14:10:31Z</time>
      </trkpt>
      <trkpt lat="43.50454" lon="5.89358">
        <ele>317.85302734375</ele>
        <time>2012-03-04T14:10:55Z</time>
      </trkpt>
      <trkpt lat="43.50434" lon="5.89377">
        <ele>315.93041992188</ele>
        <time>2012-03-04T14:11:18Z</time>
      </trkpt>
      <trkpt lat="43.50409" lon="5.89378">
        <ele>313.04650878906</ele>
        <time>2012-03-04T14:11:39Z</time>
      </trkpt>
      <trkpt lat="43.50378" lon="5.89384">
        <ele>306.31726074219</ele>
        <time>2012-03-04T14:12:05Z</time>
      </trkpt>
      <trkpt lat="43.50348" lon="5.89399">
        <ele>303.43322753906</ele>
        <time>2012-03-04T14:12:33Z</time>
      </trkpt>
      <trkpt lat="43.50323" lon="5.89407">
        <ele>299.58801269531</ele>
        <time>2012-03-04T14:12:57Z</time>
      </trkpt>
      <trkpt lat="43.50298" lon="5.89428">
        <ele>299.58801269531</ele>
        <time>2012-03-04T14:13:22Z</time>
      </trkpt>
      <trkpt lat="43.50284" lon="5.89452">
        <ele>298.62670898438</ele>
        <time>2012-03-04T14:13:44Z</time>
      </trkpt>
      <trkpt lat="43.50283" lon="5.89454">
        <ele>298.62670898438</ele>
        <time>2012-03-04T14:13:46Z</time>
      </trkpt>
      <trkpt lat="43.50269" lon="5.89467">
        <ele>298.14611816406</ele>
        <time>2012-03-04T14:14:03Z</time>
      </trkpt>
      <trkpt lat="43.50264" lon="5.89486">
        <ele>297.66540527344</ele>
        <time>2012-03-04T14:14:20Z</time>
      </trkpt>
      <trkpt lat="43.50263" lon="5.89491">
        <ele>296.7041015625</ele>
        <time>2012-03-04T14:14:40Z</time>
      </trkpt>
      <trkpt lat="43.50255" lon="5.89526">
        <ele>297.18469238281</ele>
        <time>2012-03-04T14:15:05Z</time>
      </trkpt>
      <trkpt lat="43.5025" lon="5.89567">
        <ele>298.14611816406</ele>
        <time>2012-03-04T14:15:31Z</time>
      </trkpt>
      <trkpt lat="43.50249" lon="5.89605">
        <ele>298.62670898438</ele>
        <time>2012-03-04T14:15:57Z</time>
      </trkpt>
      <trkpt lat="43.50243" lon="5.89638">
        <ele>298.14611816406</ele>
        <time>2012-03-04T14:16:23Z</time>
      </trkpt>
      <trkpt lat="43.50242" lon="5.89637">
        <ele>297.66540527344</ele>
        <time>2012-03-04T14:16:42Z</time>
      </trkpt>
      <trkpt lat="43.50242" lon="5.89637">
        <ele>297.18469238281</ele>
        <time>2012-03-04T14:17:30Z</time>
      </trkpt>
      <trkpt lat="43.50242" lon="5.89649">
        <ele>297.66540527344</ele>
        <time>2012-03-04T14:19:15Z</time>
      </trkpt>
      <trkpt lat="43.5024" lon="5.89674">
        <ele>300.06872558594</ele>
        <time>2012-03-04T14:19:37Z</time>
      </trkpt>
      <trkpt lat="43.50243" lon="5.89694">
        <ele>301.51062011719</ele>
        <time>2012-03-04T14:19:56Z</time>
      </trkpt>
      <trkpt lat="43.50244" lon="5.89702">
        <ele>301.99133300781</ele>
        <time>2012-03-04T14:20:03Z</time>
      </trkpt>
      <trkpt lat="43.50245" lon="5.89705">
        <ele>302.47192382812</ele>
        <time>2012-03-04T14:20:05Z</time>
      </trkpt>
      <trkpt lat="43.50234" lon="5.89734">
        <ele>301.02990722656</ele>
        <time>2012-03-04T14:20:29Z</time>
      </trkpt>
      <trkpt lat="43.50233" lon="5.89737">
        <ele>301.51062011719</ele>
        <time>2012-03-04T14:20:31Z</time>
      </trkpt>
      <trkpt lat="43.50229" lon="5.89745">
        <ele>300.54931640625</ele>
        <time>2012-03-04T14:20:38Z</time>
      </trkpt>
      <trkpt lat="43.50226" lon="5.89751">
        <ele>299.10729980469</ele>
        <time>2012-03-04T14:20:43Z</time>
      </trkpt>
      <trkpt lat="43.50224" lon="5.89755">
        <ele>298.62670898438</ele>
        <time>2012-03-04T14:20:46Z</time>
      </trkpt>
      <trkpt lat="43.50212" lon="5.89784">
        <ele>294.30078125</ele>
        <time>2012-03-04T14:21:08Z</time>
      </trkpt>
      <trkpt lat="43.50218" lon="5.89808">
        <ele>297.66540527344</ele>
        <time>2012-03-04T14:21:29Z</time>
      </trkpt>
      <trkpt lat="43.50225" lon="5.8982">
        <ele>300.54931640625</ele>
        <time>2012-03-04T14:21:41Z</time>
      </trkpt>
      <trkpt lat="43.50231" lon="5.89838">
        <ele>300.54931640625</ele>
        <time>2012-03-04T14:21:56Z</time>
      </trkpt>
      <trkpt lat="43.50238" lon="5.89853">
        <ele>302.47192382812</ele>
        <time>2012-03-04T14:22:11Z</time>
      </trkpt>
      <trkpt lat="43.50251" lon="5.89865">
        <ele>305.35595703125</ele>
        <time>2012-03-04T14:22:29Z</time>
      </trkpt>
      <trkpt lat="43.50253" lon="5.89866">
        <ele>305.35595703125</ele>
        <time>2012-03-04T14:22:32Z</time>
      </trkpt>
      <trkpt lat="43.50262" lon="5.89874">
        <ele>307.27856445312</ele>
        <time>2012-03-04T14:22:45Z</time>
      </trkpt>
      <trkpt lat="43.50273" lon="5.89883">
        <ele>308.72045898438</ele>
        <time>2012-03-04T14:23:02Z</time>
      </trkpt>
      <trkpt lat="43.50283" lon="5.89894">
        <ele>310.16247558594</ele>
        <time>2012-03-04T14:23:17Z</time>
      </trkpt>
      <trkpt lat="43.50284" lon="5.89896">
        <ele>310.16247558594</ele>
        <time>2012-03-04T14:23:19Z</time>
      </trkpt>
      <trkpt lat="43.50299" lon="5.89909">
        <ele>313.52722167969</ele>
        <time>2012-03-04T14:23:40Z</time>
      </trkpt>
      <trkpt lat="43.50315" lon="5.89915">
        <ele>314.0078125</ele>
        <time>2012-03-04T14:24:01Z</time>
      </trkpt>
      <trkpt lat="43.50325" lon="5.8992">
        <ele>315.44982910156</ele>
        <time>2012-03-04T14:24:18Z</time>
      </trkpt>
      <trkpt lat="43.50336" lon="5.89928">
        <ele>316.41101074219</ele>
        <time>2012-03-04T14:24:34Z</time>
      </trkpt>
      <trkpt lat="43.50352" lon="5.89947">
        <ele>315.44982910156</ele>
        <time>2012-03-04T14:24:58Z</time>
      </trkpt>
      <trkpt lat="43.50357" lon="5.89947">
        <ele>316.89172363281</ele>
        <time>2012-03-04T14:25:14Z</time>
      </trkpt>
      <trkpt lat="43.50363" lon="5.89945">
        <ele>318.81433105469</ele>
        <time>2012-03-04T14:25:38Z</time>
      </trkpt>
      <trkpt lat="43.50364" lon="5.89945">
        <ele>318.33361816406</ele>
        <time>2012-03-04T14:26:27Z</time>
      </trkpt>
      <trkpt lat="43.50372" lon="5.89954">
        <ele>321.2177734375</ele>
        <time>2012-03-04T14:26:49Z</time>
      </trkpt>
      <trkpt lat="43.50383" lon="5.8997">
        <ele>323.62097167969</ele>
        <time>2012-03-04T14:27:09Z</time>
      </trkpt>
      <trkpt lat="43.50395" lon="5.89979">
        <ele>326.02416992188</ele>
        <time>2012-03-04T14:27:30Z</time>
      </trkpt>
      <trkpt lat="43.50401" lon="5.89983">
        <ele>328.42761230469</ele>
        <time>2012-03-04T14:27:44Z</time>
      </trkpt>
      <trkpt lat="43.50407" lon="5.89983">
        <ele>331.3115234375</ele>
        <time>2012-03-04T14:27:59Z</time>
      </trkpt>
      <trkpt lat="43.50414" lon="5.89982">
        <ele>332.75354003906</ele>
        <time>2012-03-04T14:28:13Z</time>
      </trkpt>
      <trkpt lat="43.5042" lon="5.8998">
        <ele>335.63732910156</ele>
        <time>2012-03-04T14:28:31Z</time>
      </trkpt>
      <trkpt lat="43.50427" lon="5.89979">
        <ele>336.59887695312</ele>
        <time>2012-03-04T14:28:46Z</time>
      </trkpt>
      <trkpt lat="43.50433" lon="5.89975">
        <ele>339.00207519531</ele>
        <time>2012-03-04T14:29:03Z</time>
      </trkpt>
      <trkpt lat="43.50438" lon="5.89986">
        <ele>341.4052734375</ele>
        <time>2012-03-04T14:29:19Z</time>
      </trkpt>
      <trkpt lat="43.50454" lon="5.9">
        <ele>344.28942871094</ele>
        <time>2012-03-04T14:29:45Z</time>
      </trkpt>
      <trkpt lat="43.50461" lon="5.90006">
        <ele>345.25061035156</ele>
        <time>2012-03-04T14:30:06Z</time>
      </trkpt>
      <trkpt lat="43.50468" lon="5.90011">
        <ele>344.77001953125</ele>
        <time>2012-03-04T14:30:56Z</time>
      </trkpt>
      <trkpt lat="43.5047" lon="5.90021">
        <ele>345.25061035156</ele>
        <time>2012-03-04T14:31:11Z</time>
      </trkpt>
      <trkpt lat="43.50462" lon="5.90033">
        <ele>343.32788085938</ele>
        <time>2012-03-04T14:31:31Z</time>
      </trkpt>
      <trkpt lat="43.50451" lon="5.90049">
        <ele>339.96337890625</ele>
        <time>2012-03-04T14:31:54Z</time>
      </trkpt>
      <trkpt lat="43.50442" lon="5.90065">
        <ele>336.1181640625</ele>
        <time>2012-03-04T14:32:19Z</time>
      </trkpt>
      <trkpt lat="43.5043" lon="5.90074">
        <ele>333.23413085938</ele>
        <time>2012-03-04T14:32:41Z</time>
      </trkpt>
      <trkpt lat="43.50423" lon="5.90091">
        <ele>330.35021972656</ele>
        <time>2012-03-04T14:33:03Z</time>
      </trkpt>
      <trkpt lat="43.50414" lon="5.90106">
        <ele>327.94677734375</ele>
        <time>2012-03-04T14:33:22Z</time>
      </trkpt>
      <trkpt lat="43.50401" lon="5.90122">
        <ele>323.62097167969</ele>
        <time>2012-03-04T14:33:47Z</time>
      </trkpt>
      <trkpt lat="43.50391" lon="5.90142">
        <ele>319.77563476562</ele>
        <time>2012-03-04T14:34:11Z</time>
      </trkpt>
      <trkpt lat="43.50379" lon="5.90167">
        <ele>315.44982910156</ele>
        <time>2012-03-04T14:34:41Z</time>
      </trkpt>
      <trkpt lat="43.50365" lon="5.90178">
        <ele>312.56579589844</ele>
        <time>2012-03-04T14:35:02Z</time>
      </trkpt>
      <trkpt lat="43.50364" lon="5.90191">
        <ele>309.68188476562</ele>
        <time>2012-03-04T14:35:20Z</time>
      </trkpt>
      <trkpt lat="43.50364" lon="5.90192">
        <ele>309.201171875</ele>
        <time>2012-03-04T14:35:30Z</time>
      </trkpt>
      <trkpt lat="43.50358" lon="5.90205">
        <ele>306.31726074219</ele>
        <time>2012-03-04T14:35:46Z</time>
      </trkpt>
      <trkpt lat="43.50356" lon="5.90208">
        <ele>306.31726074219</ele>
        <time>2012-03-04T14:36:01Z</time>
      </trkpt>
      <trkpt lat="43.50355" lon="5.90209">
        <ele>305.35595703125</ele>
        <time>2012-03-04T14:36:17Z</time>
      </trkpt>
      <trkpt lat="43.50355" lon="5.90219">
        <ele>301.99133300781</ele>
        <time>2012-03-04T14:36:35Z</time>
      </trkpt>
      <trkpt lat="43.50351" lon="5.90226">
        <ele>298.14611816406</ele>
        <time>2012-03-04T14:36:54Z</time>
      </trkpt>
      <trkpt lat="43.50348" lon="5.90234">
        <ele>295.74267578125</ele>
        <time>2012-03-04T14:37:04Z</time>
      </trkpt>
      <trkpt lat="43.50353" lon="5.90246">
        <ele>293.33935546875</ele>
        <time>2012-03-04T14:37:24Z</time>
      </trkpt>
      <trkpt lat="43.50353" lon="5.90246">
        <ele>293.33935546875</ele>
        <time>2012-03-04T14:38:50Z</time>
      </trkpt>
      <trkpt lat="43.50346" lon="5.90259">
        <ele>293.82006835938</ele>
        <time>2012-03-04T14:39:49Z</time>
      </trkpt>
      <trkpt lat="43.50342" lon="5.90268">
        <ele>292.37817382812</ele>
        <time>2012-03-04T14:40:02Z</time>
      </trkpt>
      <trkpt lat="43.50328" lon="5.90273">
        <ele>291.41674804688</ele>
        <time>2012-03-04T14:40:18Z</time>
      </trkpt>
      <trkpt lat="43.50308" lon="5.90292">
        <ele>289.97485351562</ele>
        <time>2012-03-04T14:40:40Z</time>
      </trkpt>
      <trkpt lat="43.50292" lon="5.90305">
        <ele>289.01354980469</ele>
        <time>2012-03-04T14:41:00Z</time>
      </trkpt>
      <trkpt lat="43.5027" lon="5.90314">
        <ele>285.64880371094</ele>
        <time>2012-03-04T14:41:25Z</time>
      </trkpt>
      <trkpt lat="43.50266" lon="5.90345">
        <ele>285.64880371094</ele>
        <time>2012-03-04T14:41:46Z</time>
      </trkpt>
      <trkpt lat="43.50264" lon="5.90386">
        <ele>289.494140625</ele>
        <time>2012-03-04T14:42:15Z</time>
      </trkpt>
      <trkpt lat="43.50259" lon="5.90409">
        <ele>288.05224609375</ele>
        <time>2012-03-04T14:42:37Z</time>
      </trkpt>
      <trkpt lat="43.50257" lon="5.90411">
        <ele>288.05224609375</ele>
        <time>2012-03-04T14:42:39Z</time>
      </trkpt>
      <trkpt lat="43.50243" lon="5.90437">
        <ele>281.80358886719</ele>
        <time>2012-03-04T14:43:06Z</time>
      </trkpt>
      <trkpt lat="43.50246" lon="5.90447">
        <ele>282.76501464844</ele>
        <time>2012-03-04T14:43:16Z</time>
      </trkpt>
      <trkpt lat="43.50249" lon="5.90474">
        <ele>282.76501464844</ele>
        <time>2012-03-04T14:43:36Z</time>
      </trkpt>
      <trkpt lat="43.50253" lon="5.90487">
        <ele>284.20690917969</ele>
        <time>2012-03-04T14:43:47Z</time>
      </trkpt>
      <trkpt lat="43.50261" lon="5.90507">
        <ele>284.68762207031</ele>
        <time>2012-03-04T14:44:03Z</time>
      </trkpt>
      <trkpt lat="43.50261" lon="5.90508">
        <ele>285.16821289062</ele>
        <time>2012-03-04T14:44:04Z</time>
      </trkpt>
      <trkpt lat="43.50264" lon="5.90534">
        <ele>288.05224609375</ele>
        <time>2012-03-04T14:44:22Z</time>
      </trkpt>
      <trkpt lat="43.50263" lon="5.90558">
        <ele>290.93615722656</ele>
        <time>2012-03-04T14:44:39Z</time>
      </trkpt>
      <trkpt lat="43.50262" lon="5.90583">
        <ele>296.7041015625</ele>
        <time>2012-03-04T14:44:58Z</time>
      </trkpt>
      <trkpt lat="43.50269" lon="5.90605">
        <ele>290.93615722656</ele>
        <time>2012-03-04T14:45:18Z</time>
      </trkpt>
      <trkpt lat="43.5027" lon="5.90608">
        <ele>291.41674804688</ele>
        <time>2012-03-04T14:45:20Z</time>
      </trkpt>
      <trkpt lat="43.50259" lon="5.90623">
        <ele>288.53295898438</ele>
        <time>2012-03-04T14:45:37Z</time>
      </trkpt>
      <trkpt lat="43.50242" lon="5.90629">
        <ele>286.61022949219</ele>
        <time>2012-03-04T14:45:57Z</time>
      </trkpt>
      <trkpt lat="43.50224" lon="5.90638">
        <ele>280.84240722656</ele>
        <time>2012-03-04T14:46:19Z</time>
      </trkpt>
      <trkpt lat="43.50212" lon="5.90666">
        <ele>276.9970703125</ele>
        <time>2012-03-04T14:46:44Z</time>
      </trkpt>
      <trkpt lat="43.50209" lon="5.90694">
        <ele>274.59375</ele>
        <time>2012-03-04T14:47:07Z</time>
      </trkpt>
      <trkpt lat="43.50213" lon="5.90707">
        <ele>273.63244628906</ele>
        <time>2012-03-04T14:47:16Z</time>
      </trkpt>
      <trkpt lat="43.50217" lon="5.90727">
        <ele>272.67114257812</ele>
        <time>2012-03-04T14:47:35Z</time>
      </trkpt>
      <trkpt lat="43.5022" lon="5.9074">
        <ele>271.22912597656</ele>
        <time>2012-03-04T14:47:48Z</time>
      </trkpt>
      <trkpt lat="43.5024" lon="5.90759">
        <ele>269.30651855469</ele>
        <time>2012-03-04T14:48:11Z</time>
      </trkpt>
      <trkpt lat="43.50251" lon="5.90776">
        <ele>269.30651855469</ele>
        <time>2012-03-04T14:48:29Z</time>
      </trkpt>
      <trkpt lat="43.50254" lon="5.9078">
        <ele>268.82580566406</ele>
        <time>2012-03-04T14:48:36Z</time>
      </trkpt>
      <trkpt lat="43.50274" lon="5.90793">
        <ele>269.787109375</ele>
        <time>2012-03-04T14:48:58Z</time>
      </trkpt>
      <trkpt lat="43.50298" lon="5.90804">
        <ele>267.86450195312</ele>
        <time>2012-03-04T14:49:22Z</time>
      </trkpt>
      <trkpt lat="43.5032" lon="5.90815">
        <ele>267.38391113281</ele>
        <time>2012-03-04T14:49:46Z</time>
      </trkpt>
      <trkpt lat="43.50338" lon="5.90808">
        <ele>270.26770019531</ele>
        <time>2012-03-04T14:50:03Z</time>
      </trkpt>
      <trkpt lat="43.50355" lon="5.90784">
        <ele>272.67114257812</ele>
        <time>2012-03-04T14:50:26Z</time>
      </trkpt>
      <trkpt lat="43.50367" lon="5.9076">
        <ele>276.03564453125</ele>
        <time>2012-03-04T14:50:46Z</time>
      </trkpt>
      <trkpt lat="43.50386" lon="5.90739">
        <ele>277.95825195312</ele>
        <time>2012-03-04T14:51:10Z</time>
      </trkpt>
      <trkpt lat="43.50388" lon="5.90732">
        <ele>277.95825195312</ele>
        <time>2012-03-04T14:51:19Z</time>
      </trkpt>
      <trkpt lat="43.50397" lon="5.90724">
        <ele>277.47766113281</ele>
        <time>2012-03-04T14:51:36Z</time>
      </trkpt>
      <trkpt lat="43.50399" lon="5.90721">
        <ele>277.47766113281</ele>
        <time>2012-03-04T14:51:57Z</time>
      </trkpt>
      <trkpt lat="43.50399" lon="5.90719">
        <ele>276.9970703125</ele>
        <time>2012-03-04T14:53:03Z</time>
      </trkpt>
      <trkpt lat="43.50396" lon="5.90722">
        <ele>278.91967773438</ele>
        <time>2012-03-04T14:53:18Z</time>
      </trkpt>
      <trkpt lat="43.50395" lon="5.90724">
        <ele>279.880859375</ele>
        <time>2012-03-04T14:53:21Z</time>
      </trkpt>
      <trkpt lat="43.50388" lon="5.90727">
        <ele>279.880859375</ele>
        <time>2012-03-04T14:53:27Z</time>
      </trkpt>
      <trkpt lat="43.50373" lon="5.9075">
        <ele>279.880859375</ele>
        <time>2012-03-04T14:53:47Z</time>
      </trkpt>
      <trkpt lat="43.50358" lon="5.90773">
        <ele>281.32299804688</ele>
        <time>2012-03-04T14:54:06Z</time>
      </trkpt>
      <trkpt lat="43.50343" lon="5.90804">
        <ele>279.40026855469</ele>
        <time>2012-03-04T14:54:27Z</time>
      </trkpt>
      <trkpt lat="43.50318" lon="5.90818">
        <ele>277.47766113281</ele>
        <time>2012-03-04T14:54:48Z</time>
      </trkpt>
      <trkpt lat="43.50305" lon="5.9081">
        <ele>273.63244628906</ele>
        <time>2012-03-04T14:55:01Z</time>
      </trkpt>
      <trkpt lat="43.50298" lon="5.90806">
        <ele>272.67114257812</ele>
        <time>2012-03-04T14:55:07Z</time>
      </trkpt>
      <trkpt lat="43.50282" lon="5.90802">
        <ele>270.26770019531</ele>
        <time>2012-03-04T14:55:21Z</time>
      </trkpt>
      <trkpt lat="43.5027" lon="5.90803">
        <ele>269.787109375</ele>
        <time>2012-03-04T14:55:36Z</time>
      </trkpt>
      <trkpt lat="43.50253" lon="5.90787">
        <ele>272.67114257812</ele>
        <time>2012-03-04T14:55:50Z</time>
      </trkpt>
      <trkpt lat="43.5025" lon="5.90782">
        <ele>271.22912597656</ele>
        <time>2012-03-04T14:56:04Z</time>
      </trkpt>
      <trkpt lat="43.50249" lon="5.90782">
        <ele>270.26770019531</ele>
        <time>2012-03-04T14:56:44Z</time>
      </trkpt>
      <trkpt lat="43.50248" lon="5.9078">
        <ele>270.26770019531</ele>
        <time>2012-03-04T14:56:59Z</time>
      </trkpt>
      <trkpt lat="43.50246" lon="5.90779">
        <ele>271.22912597656</ele>
        <time>2012-03-04T14:57:25Z</time>
      </trkpt>
      <trkpt lat="43.50246" lon="5.90779">
        <ele>270.74841308594</ele>
        <time>2012-03-04T14:57:28Z</time>
      </trkpt>
    </trkseg>
  </trk>
</gpx>